<?xml version="1.0" encoding="UTF-8" standalone="no" ?>
<gpx xmlns="http://www.topografix.com/GPX/1/1" xmlns:xsi="http://www.w3.org/2001/XMLSchema-instance" xsi:schemaLocation="http://www.topografix.com/GPX/1/1 http://www.topografix.com/GPX/1/1/gpx.xsd" version="1.1" creator="VisuGPX - https://www.visugpx.com">
  <metadata>
    <name>Thuin - marche 15 km  petite suisse</name>
  </metadata>
  <trk>
    <name><![CDATA[Thuin la petite Suisse sur TraceDeTrail.fr]]></name>
    <trkseg>
      <trkpt lat="50.3378" lon="4.28592">
        <ele>116</ele>
        <time>2000-01-01T00:56:59.000Z</time>
      </trkpt>
      <trkpt lat="50.33789" lon="4.28563">
        <ele>115</ele>
        <time>2000-01-01T00:57:09.000Z</time>
      </trkpt>
      <trkpt lat="50.33794" lon="4.28551">
        <ele>121.5</ele>
        <time>2000-01-01T00:57:19.000Z</time>
      </trkpt>
      <trkpt lat="50.33799" lon="4.28543">
        <ele>121.5</ele>
        <time>2000-01-01T00:57:29.000Z</time>
      </trkpt>
      <trkpt lat="50.33813" lon="4.28522">
        <ele>115</ele>
        <time>2000-01-01T00:57:39.000Z</time>
      </trkpt>
      <trkpt lat="50.33827" lon="4.28497">
        <ele>113</ele>
        <time>2000-01-01T00:57:49.000Z</time>
      </trkpt>
      <trkpt lat="50.33846" lon="4.28474">
        <ele>115</ele>
        <time>2000-01-01T00:57:59.000Z</time>
      </trkpt>
      <trkpt lat="50.33869" lon="4.28446">
        <ele>117</ele>
        <time>2000-01-01T00:58:09.000Z</time>
      </trkpt>
      <trkpt lat="50.33884" lon="4.28422">
        <ele>119</ele>
        <time>2000-01-01T00:58:19.000Z</time>
      </trkpt>
      <trkpt lat="50.33887" lon="4.28407">
        <ele>122.1</ele>
        <time>2000-01-01T00:58:29.000Z</time>
      </trkpt>
      <trkpt lat="50.33895" lon="4.28407">
        <ele>119</ele>
        <time>2000-01-01T00:58:39.000Z</time>
      </trkpt>
      <trkpt lat="50.33896" lon="4.28422">
        <ele>125.7</ele>
        <time>2000-01-01T00:58:49.000Z</time>
      </trkpt>
      <trkpt lat="50.3389" lon="4.28456">
        <ele>119</ele>
        <time>2000-01-01T00:58:59.000Z</time>
      </trkpt>
      <trkpt lat="50.33886" lon="4.2847">
        <ele>132.6</ele>
        <time>2000-01-01T00:59:09.000Z</time>
      </trkpt>
      <trkpt lat="50.33872" lon="4.28505">
        <ele>120</ele>
        <time>2000-01-01T00:59:19.000Z</time>
      </trkpt>
      <trkpt lat="50.33862" lon="4.28529">
        <ele>126</ele>
        <time>2000-01-01T00:59:29.000Z</time>
      </trkpt>
      <trkpt lat="50.33859" lon="4.28543">
        <ele>139</ele>
        <time>2000-01-01T00:59:39.000Z</time>
      </trkpt>
      <trkpt lat="50.33857" lon="4.28556">
        <ele>134</ele>
        <time>2000-01-01T00:59:49.000Z</time>
      </trkpt>
      <trkpt lat="50.33857" lon="4.28569">
        <ele>141.6</ele>
        <time>2000-01-01T00:59:59.000Z</time>
      </trkpt>
      <trkpt lat="50.33857" lon="4.28602">
        <ele>142</ele>
        <time>2000-01-01T01:00:09.000Z</time>
      </trkpt>
      <trkpt lat="50.33861" lon="4.28616">
        <ele>146.1</ele>
        <time>2000-01-01T01:00:19.000Z</time>
      </trkpt>
      <trkpt lat="50.33862" lon="4.28665">
        <ele>139</ele>
        <time>2000-01-01T01:00:29.000Z</time>
      </trkpt>
      <trkpt lat="50.33853" lon="4.28674">
        <ele>147.7</ele>
        <time>2000-01-01T01:00:39.000Z</time>
      </trkpt>
      <trkpt lat="50.33831" lon="4.2869">
        <ele>141</ele>
        <time>2000-01-01T01:00:49.000Z</time>
      </trkpt>
      <trkpt lat="50.33826" lon="4.28701">
        <ele>143.1</ele>
        <time>2000-01-01T01:00:59.000Z</time>
      </trkpt>
      <trkpt lat="50.33821" lon="4.28717">
        <ele>137</ele>
        <time>2000-01-01T01:01:09.000Z</time>
      </trkpt>
      <trkpt lat="50.33816" lon="4.28728">
        <ele>138.7</ele>
        <time>2000-01-01T01:01:19.000Z</time>
      </trkpt>
      <trkpt lat="50.33804" lon="4.28755">
        <ele>133</ele>
        <time>2000-01-01T01:01:29.000Z</time>
      </trkpt>
      <trkpt lat="50.33799" lon="4.28774">
        <ele>128.6</ele>
        <time>2000-01-01T01:01:39.000Z</time>
      </trkpt>
      <trkpt lat="50.33799" lon="4.28803">
        <ele>127</ele>
        <time>2000-01-01T01:01:49.000Z</time>
      </trkpt>
      <trkpt lat="50.33791" lon="4.2882">
        <ele>126.3</ele>
        <time>2000-01-01T01:01:59.000Z</time>
      </trkpt>
      <trkpt lat="50.33799" lon="4.28874">
        <ele>130</ele>
        <time>2000-01-01T01:02:09.000Z</time>
      </trkpt>
      <trkpt lat="50.33804" lon="4.28919">
        <ele>133</ele>
        <time>2000-01-01T01:02:19.000Z</time>
      </trkpt>
      <trkpt lat="50.33829" lon="4.2897">
        <ele>147</ele>
        <time>2000-01-01T01:02:29.000Z</time>
      </trkpt>
      <trkpt lat="50.33832" lon="4.28984">
        <ele>147.7</ele>
        <time>2000-01-01T01:02:39.000Z</time>
      </trkpt>
      <trkpt lat="50.33832" lon="4.28999">
        <ele>147</ele>
        <time>2000-01-01T01:02:49.000Z</time>
      </trkpt>
      <trkpt lat="50.3383" lon="4.29011">
        <ele>148.7</ele>
        <time>2000-01-01T01:02:59.000Z</time>
      </trkpt>
      <trkpt lat="50.33822" lon="4.2902">
        <ele>147</ele>
        <time>2000-01-01T01:03:09.000Z</time>
      </trkpt>
      <trkpt lat="50.33803" lon="4.29013">
        <ele>136</ele>
        <time>2000-01-01T01:03:19.000Z</time>
      </trkpt>
      <trkpt lat="50.33792" lon="4.29017">
        <ele>149.6</ele>
        <time>2000-01-01T01:03:29.000Z</time>
      </trkpt>
      <trkpt lat="50.33782" lon="4.29024">
        <ele>130</ele>
        <time>2000-01-01T01:03:39.000Z</time>
      </trkpt>
      <trkpt lat="50.33766" lon="4.2904">
        <ele>131</ele>
        <time>2000-01-01T01:03:49.000Z</time>
      </trkpt>
      <trkpt lat="50.33731" lon="4.29024">
        <ele>127</ele>
        <time>2000-01-01T01:03:59.000Z</time>
      </trkpt>
      <trkpt lat="50.33689" lon="4.2901">
        <ele>123</ele>
        <time>2000-01-01T01:04:09.000Z</time>
      </trkpt>
      <trkpt lat="50.33678" lon="4.29006">
        <ele>138.4</ele>
        <time>2000-01-01T01:04:19.000Z</time>
      </trkpt>
      <trkpt lat="50.33669" lon="4.29002">
        <ele>123</ele>
        <time>2000-01-01T01:04:29.000Z</time>
      </trkpt>
      <trkpt lat="50.3365" lon="4.28998">
        <ele>121</ele>
        <time>2000-01-01T01:04:39.000Z</time>
      </trkpt>
      <trkpt lat="50.33642" lon="4.28992">
        <ele>130</ele>
        <time>2000-01-01T01:04:49.000Z</time>
      </trkpt>
      <trkpt lat="50.33621" lon="4.28985">
        <ele>120</ele>
        <time>2000-01-01T01:04:59.000Z</time>
      </trkpt>
      <trkpt lat="50.33607" lon="4.28968">
        <ele>120</ele>
        <time>2000-01-01T01:05:09.000Z</time>
      </trkpt>
      <trkpt lat="50.33608" lon="4.28991">
        <ele>126.1</ele>
        <time>2000-01-01T01:05:19.000Z</time>
      </trkpt>
      <trkpt lat="50.33601" lon="4.29021">
        <ele>124</ele>
        <time>2000-01-01T01:05:29.000Z</time>
      </trkpt>
      <trkpt lat="50.33589" lon="4.29018">
        <ele>135.6</ele>
        <time>2000-01-01T01:05:39.000Z</time>
      </trkpt>
      <trkpt lat="50.33583" lon="4.2902">
        <ele>129</ele>
        <time>2000-01-01T01:05:49.000Z</time>
      </trkpt>
      <trkpt lat="50.33576" lon="4.29024">
        <ele>140.5</ele>
        <time>2000-01-01T01:05:59.000Z</time>
      </trkpt>
      <trkpt lat="50.33569" lon="4.29025">
        <ele>142.6</ele>
        <time>2000-01-01T01:06:09.000Z</time>
      </trkpt>
      <trkpt lat="50.33561" lon="4.29026">
        <ele>130</ele>
        <time>2000-01-01T01:06:19.000Z</time>
      </trkpt>
      <trkpt lat="50.33554" lon="4.29026">
        <ele>146.9</ele>
        <time>2000-01-01T01:06:29.000Z</time>
      </trkpt>
      <trkpt lat="50.33539" lon="4.29028">
        <ele>136</ele>
        <time>2000-01-01T01:06:39.000Z</time>
      </trkpt>
      <trkpt lat="50.33526" lon="4.29033">
        <ele>155</ele>
        <time>2000-01-01T01:06:49.000Z</time>
      </trkpt>
      <trkpt lat="50.33502" lon="4.29016">
        <ele>138</ele>
        <time>2000-01-01T01:06:59.000Z</time>
      </trkpt>
      <trkpt lat="50.33484" lon="4.29008">
        <ele>145</ele>
        <time>2000-01-01T01:07:09.000Z</time>
      </trkpt>
      <trkpt lat="50.33473" lon="4.29002">
        <ele>153.4</ele>
        <time>2000-01-01T01:07:19.000Z</time>
      </trkpt>
      <trkpt lat="50.33463" lon="4.28996">
        <ele>145</ele>
        <time>2000-01-01T01:07:29.000Z</time>
      </trkpt>
      <trkpt lat="50.33452" lon="4.28994">
        <ele>154.1</ele>
        <time>2000-01-01T01:07:39.000Z</time>
      </trkpt>
      <trkpt lat="50.33446" lon="4.28994">
        <ele>155</ele>
        <time>2000-01-01T01:07:49.000Z</time>
      </trkpt>
      <trkpt lat="50.33429" lon="4.2899">
        <ele>155.9</ele>
        <time>2000-01-01T01:07:59.000Z</time>
      </trkpt>
      <trkpt lat="50.33387" lon="4.28964">
        <ele>158</ele>
        <time>2000-01-01T01:08:09.000Z</time>
      </trkpt>
      <trkpt lat="50.33366" lon="4.28949">
        <ele>156</ele>
        <time>2000-01-01T01:08:19.000Z</time>
      </trkpt>
      <trkpt lat="50.33341" lon="4.28932">
        <ele>155</ele>
        <time>2000-01-01T01:08:29.000Z</time>
      </trkpt>
      <trkpt lat="50.33324" lon="4.28923">
        <ele>155</ele>
        <time>2000-01-01T01:08:39.000Z</time>
      </trkpt>
      <trkpt lat="50.33309" lon="4.28921">
        <ele>161.8</ele>
        <time>2000-01-01T01:08:49.000Z</time>
      </trkpt>
      <trkpt lat="50.33299" lon="4.28914">
        <ele>155</ele>
        <time>2000-01-01T01:08:59.000Z</time>
      </trkpt>
      <trkpt lat="50.33289" lon="4.28912">
        <ele>160.9</ele>
        <time>2000-01-01T01:09:09.000Z</time>
      </trkpt>
      <trkpt lat="50.33279" lon="4.28908">
        <ele>155</ele>
        <time>2000-01-01T01:09:19.000Z</time>
      </trkpt>
      <trkpt lat="50.33271" lon="4.28906">
        <ele>160.6</ele>
        <time>2000-01-01T01:09:29.000Z</time>
      </trkpt>
      <trkpt lat="50.33264" lon="4.28898">
        <ele>153</ele>
        <time>2000-01-01T01:09:39.000Z</time>
      </trkpt>
      <trkpt lat="50.33254" lon="4.28879">
        <ele>159.1</ele>
        <time>2000-01-01T01:09:49.000Z</time>
      </trkpt>
      <trkpt lat="50.33248" lon="4.2887">
        <ele>146</ele>
        <time>2000-01-01T01:09:59.000Z</time>
      </trkpt>
      <trkpt lat="50.33243" lon="4.2887">
        <ele>157.9</ele>
        <time>2000-01-01T01:10:09.000Z</time>
      </trkpt>
      <trkpt lat="50.33238" lon="4.28867">
        <ele>157</ele>
        <time>2000-01-01T01:10:19.000Z</time>
      </trkpt>
      <trkpt lat="50.33238" lon="4.28851">
        <ele>143</ele>
        <time>2000-01-01T01:10:29.000Z</time>
      </trkpt>
      <trkpt lat="50.33246" lon="4.28841">
        <ele>150.7</ele>
        <time>2000-01-01T01:10:39.000Z</time>
      </trkpt>
      <trkpt lat="50.33255" lon="4.28838">
        <ele>141</ele>
        <time>2000-01-01T01:10:49.000Z</time>
      </trkpt>
      <trkpt lat="50.3326" lon="4.28838">
        <ele>150.6</ele>
        <time>2000-01-01T01:10:59.000Z</time>
      </trkpt>
      <trkpt lat="50.33268" lon="4.28832">
        <ele>148.2</ele>
        <time>2000-01-01T01:11:09.000Z</time>
      </trkpt>
      <trkpt lat="50.33271" lon="4.28821">
        <ele>141</ele>
        <time>2000-01-01T01:11:19.000Z</time>
      </trkpt>
      <trkpt lat="50.33281" lon="4.28819">
        <ele>143.4</ele>
        <time>2000-01-01T01:11:29.000Z</time>
      </trkpt>
      <trkpt lat="50.33286" lon="4.28807">
        <ele>136</ele>
        <time>2000-01-01T01:11:39.000Z</time>
      </trkpt>
      <trkpt lat="50.33288" lon="4.28797">
        <ele>136</ele>
        <time>2000-01-01T01:11:49.000Z</time>
      </trkpt>
      <trkpt lat="50.33279" lon="4.28793">
        <ele>137.9</ele>
        <time>2000-01-01T01:11:59.000Z</time>
      </trkpt>
      <trkpt lat="50.3326" lon="4.28806">
        <ele>136</ele>
        <time>2000-01-01T01:12:09.000Z</time>
      </trkpt>
      <trkpt lat="50.3325" lon="4.28815">
        <ele>140.8</ele>
        <time>2000-01-01T01:12:19.000Z</time>
      </trkpt>
      <trkpt lat="50.33238" lon="4.28821">
        <ele>139</ele>
        <time>2000-01-01T01:12:29.000Z</time>
      </trkpt>
      <trkpt lat="50.33219" lon="4.28837">
        <ele>139</ele>
        <time>2000-01-01T01:12:39.000Z</time>
      </trkpt>
      <trkpt lat="50.33212" lon="4.28848">
        <ele>144.6</ele>
        <time>2000-01-01T01:12:49.000Z</time>
      </trkpt>
      <trkpt lat="50.33197" lon="4.2886">
        <ele>134</ele>
        <time>2000-01-01T01:12:59.000Z</time>
      </trkpt>
      <trkpt lat="50.3319" lon="4.28872">
        <ele>143.7</ele>
        <time>2000-01-01T01:13:09.000Z</time>
      </trkpt>
      <trkpt lat="50.33186" lon="4.28877">
        <ele>145.3</ele>
        <time>2000-01-01T01:13:19.000Z</time>
      </trkpt>
      <trkpt lat="50.33177" lon="4.28887">
        <ele>131</ele>
        <time>2000-01-01T01:13:29.000Z</time>
      </trkpt>
      <trkpt lat="50.33157" lon="4.28914">
        <ele>131</ele>
        <time>2000-01-01T01:13:39.000Z</time>
      </trkpt>
      <trkpt lat="50.33136" lon="4.28949">
        <ele>136</ele>
        <time>2000-01-01T01:13:49.000Z</time>
      </trkpt>
      <trkpt lat="50.33132" lon="4.28963">
        <ele>139.8</ele>
        <time>2000-01-01T01:13:59.000Z</time>
      </trkpt>
      <trkpt lat="50.33134" lon="4.28978">
        <ele>142</ele>
        <time>2000-01-01T01:14:09.000Z</time>
      </trkpt>
      <trkpt lat="50.33141" lon="4.28987">
        <ele>145.9</ele>
        <time>2000-01-01T01:14:19.000Z</time>
      </trkpt>
      <trkpt lat="50.33148" lon="4.28994">
        <ele>149.2</ele>
        <time>2000-01-01T01:14:29.000Z</time>
      </trkpt>
      <trkpt lat="50.33154" lon="4.28998">
        <ele>146</ele>
        <time>2000-01-01T01:14:39.000Z</time>
      </trkpt>
      <trkpt lat="50.33158" lon="4.29008">
        <ele>153.9</ele>
        <time>2000-01-01T01:14:49.000Z</time>
      </trkpt>
      <trkpt lat="50.33159" lon="4.29019">
        <ele>155.3</ele>
        <time>2000-01-01T01:14:59.000Z</time>
      </trkpt>
      <trkpt lat="50.33153" lon="4.29025">
        <ele>151</ele>
        <time>2000-01-01T01:15:09.000Z</time>
      </trkpt>
      <trkpt lat="50.33145" lon="4.29024">
        <ele>152.1</ele>
        <time>2000-01-01T01:15:19.000Z</time>
      </trkpt>
      <trkpt lat="50.3313" lon="4.29022">
        <ele>151</ele>
        <time>2000-01-01T01:15:29.000Z</time>
      </trkpt>
      <trkpt lat="50.33124" lon="4.29012">
        <ele>144.1</ele>
        <time>2000-01-01T01:15:39.000Z</time>
      </trkpt>
      <trkpt lat="50.3312" lon="4.29002">
        <ele>141.2</ele>
        <time>2000-01-01T01:15:49.000Z</time>
      </trkpt>
      <trkpt lat="50.33113" lon="4.28995">
        <ele>146</ele>
        <time>2000-01-01T01:15:59.000Z</time>
      </trkpt>
      <trkpt lat="50.33106" lon="4.29007">
        <ele>137.9</ele>
        <time>2000-01-01T01:16:09.000Z</time>
      </trkpt>
      <trkpt lat="50.33104" lon="4.29021">
        <ele>141</ele>
        <time>2000-01-01T01:16:19.000Z</time>
      </trkpt>
      <trkpt lat="50.33095" lon="4.29046">
        <ele>137</ele>
        <time>2000-01-01T01:16:29.000Z</time>
      </trkpt>
      <trkpt lat="50.33092" lon="4.29062">
        <ele>141.6</ele>
        <time>2000-01-01T01:16:39.000Z</time>
      </trkpt>
      <trkpt lat="50.33096" lon="4.29075">
        <ele>143</ele>
        <time>2000-01-01T01:16:49.000Z</time>
      </trkpt>
      <trkpt lat="50.33101" lon="4.29084">
        <ele>147.4</ele>
        <time>2000-01-01T01:16:59.000Z</time>
      </trkpt>
      <trkpt lat="50.33106" lon="4.29091">
        <ele>150.1</ele>
        <time>2000-01-01T01:17:09.000Z</time>
      </trkpt>
      <trkpt lat="50.33112" lon="4.29096">
        <ele>150</ele>
        <time>2000-01-01T01:17:19.000Z</time>
      </trkpt>
      <trkpt lat="50.33116" lon="4.29107">
        <ele>154.3</ele>
        <time>2000-01-01T01:17:29.000Z</time>
      </trkpt>
      <trkpt lat="50.33122" lon="4.29114">
        <ele>155.9</ele>
        <time>2000-01-01T01:17:39.000Z</time>
      </trkpt>
      <trkpt lat="50.33125" lon="4.29125">
        <ele>151</ele>
        <time>2000-01-01T01:17:49.000Z</time>
      </trkpt>
      <trkpt lat="50.33122" lon="4.29139">
        <ele>158.4</ele>
        <time>2000-01-01T01:17:59.000Z</time>
      </trkpt>
      <trkpt lat="50.33119" lon="4.29148">
        <ele>158.5</ele>
        <time>2000-01-01T01:18:09.000Z</time>
      </trkpt>
      <trkpt lat="50.33115" lon="4.2916">
        <ele>149</ele>
        <time>2000-01-01T01:18:19.000Z</time>
      </trkpt>
      <trkpt lat="50.33112" lon="4.29171">
        <ele>158.8</ele>
        <time>2000-01-01T01:18:29.000Z</time>
      </trkpt>
      <trkpt lat="50.33109" lon="4.29184">
        <ele>158.2</ele>
        <time>2000-01-01T01:18:39.000Z</time>
      </trkpt>
      <trkpt lat="50.33099" lon="4.29185">
        <ele>148</ele>
        <time>2000-01-01T01:18:49.000Z</time>
      </trkpt>
      <trkpt lat="50.33084" lon="4.29186">
        <ele>156.1</ele>
        <time>2000-01-01T01:18:59.000Z</time>
      </trkpt>
      <trkpt lat="50.33077" lon="4.29189">
        <ele>148</ele>
        <time>2000-01-01T01:19:09.000Z</time>
      </trkpt>
      <trkpt lat="50.3307" lon="4.29202">
        <ele>152.7</ele>
        <time>2000-01-01T01:19:19.000Z</time>
      </trkpt>
      <trkpt lat="50.33064" lon="4.29212">
        <ele>145</ele>
        <time>2000-01-01T01:19:29.000Z</time>
      </trkpt>
      <trkpt lat="50.33057" lon="4.29229">
        <ele>149.8</ele>
        <time>2000-01-01T01:19:39.000Z</time>
      </trkpt>
      <trkpt lat="50.33052" lon="4.29244">
        <ele>142</ele>
        <time>2000-01-01T01:19:49.000Z</time>
      </trkpt>
      <trkpt lat="50.33068" lon="4.29259">
        <ele>142</ele>
        <time>2000-01-01T01:19:59.000Z</time>
      </trkpt>
      <trkpt lat="50.33079" lon="4.29264">
        <ele>143.5</ele>
        <time>2000-01-01T01:20:09.000Z</time>
      </trkpt>
      <trkpt lat="50.33098" lon="4.2927">
        <ele>142</ele>
        <time>2000-01-01T01:20:19.000Z</time>
      </trkpt>
      <trkpt lat="50.33107" lon="4.29269">
        <ele>138.4</ele>
        <time>2000-01-01T01:20:29.000Z</time>
      </trkpt>
      <trkpt lat="50.33127" lon="4.29254">
        <ele>143</ele>
        <time>2000-01-01T01:20:39.000Z</time>
      </trkpt>
      <trkpt lat="50.33134" lon="4.29245">
        <ele>140.3</ele>
        <time>2000-01-01T01:20:49.000Z</time>
      </trkpt>
      <trkpt lat="50.3315" lon="4.29233">
        <ele>145</ele>
        <time>2000-01-01T01:20:59.000Z</time>
      </trkpt>
      <trkpt lat="50.33157" lon="4.29226">
        <ele>147.3</ele>
        <time>2000-01-01T01:21:09.000Z</time>
      </trkpt>
      <trkpt lat="50.33166" lon="4.29222">
        <ele>147</ele>
        <time>2000-01-01T01:21:19.000Z</time>
      </trkpt>
      <trkpt lat="50.33174" lon="4.29216">
        <ele>150.6</ele>
        <time>2000-01-01T01:21:29.000Z</time>
      </trkpt>
      <trkpt lat="50.33185" lon="4.29213">
        <ele>147</ele>
        <time>2000-01-01T01:21:39.000Z</time>
      </trkpt>
      <trkpt lat="50.33195" lon="4.29219">
        <ele>151.6</ele>
        <time>2000-01-01T01:21:49.000Z</time>
      </trkpt>
      <trkpt lat="50.33204" lon="4.29227">
        <ele>148</ele>
        <time>2000-01-01T01:21:59.000Z</time>
      </trkpt>
      <trkpt lat="50.33213" lon="4.2923">
        <ele>152.5</ele>
        <time>2000-01-01T01:22:09.000Z</time>
      </trkpt>
      <trkpt lat="50.33232" lon="4.29241">
        <ele>150</ele>
        <time>2000-01-01T01:22:19.000Z</time>
      </trkpt>
      <trkpt lat="50.3324" lon="4.29244">
        <ele>157.1</ele>
        <time>2000-01-01T01:22:29.000Z</time>
      </trkpt>
      <trkpt lat="50.33245" lon="4.29254">
        <ele>157.2</ele>
        <time>2000-01-01T01:22:39.000Z</time>
      </trkpt>
      <trkpt lat="50.33253" lon="4.29263">
        <ele>160</ele>
        <time>2000-01-01T01:22:49.000Z</time>
      </trkpt>
      <trkpt lat="50.33261" lon="4.29273">
        <ele>158.5</ele>
        <time>2000-01-01T01:22:59.000Z</time>
      </trkpt>
      <trkpt lat="50.33279" lon="4.29288">
        <ele>167</ele>
        <time>2000-01-01T01:23:09.000Z</time>
      </trkpt>
      <trkpt lat="50.33288" lon="4.29297">
        <ele>161.8</ele>
        <time>2000-01-01T01:23:19.000Z</time>
      </trkpt>
      <trkpt lat="50.33297" lon="4.293">
        <ele>167</ele>
        <time>2000-01-01T01:23:29.000Z</time>
      </trkpt>
      <trkpt lat="50.33305" lon="4.29306">
        <ele>163.8</ele>
        <time>2000-01-01T01:23:39.000Z</time>
      </trkpt>
      <trkpt lat="50.33321" lon="4.29323">
        <ele>171</ele>
        <time>2000-01-01T01:23:49.000Z</time>
      </trkpt>
      <trkpt lat="50.3333" lon="4.29333">
        <ele>165.1</ele>
        <time>2000-01-01T01:23:59.000Z</time>
      </trkpt>
      <trkpt lat="50.33341" lon="4.29356">
        <ele>175</ele>
        <time>2000-01-01T01:24:09.000Z</time>
      </trkpt>
      <trkpt lat="50.33348" lon="4.29367">
        <ele>166.4</ele>
        <time>2000-01-01T01:24:19.000Z</time>
      </trkpt>
      <trkpt lat="50.33359" lon="4.29394">
        <ele>176</ele>
        <time>2000-01-01T01:24:29.000Z</time>
      </trkpt>
      <trkpt lat="50.33361" lon="4.29408">
        <ele>168.7</ele>
        <time>2000-01-01T01:24:39.000Z</time>
      </trkpt>
      <trkpt lat="50.33362" lon="4.29425">
        <ele>178</ele>
        <time>2000-01-01T01:24:49.000Z</time>
      </trkpt>
      <trkpt lat="50.3336" lon="4.29455">
        <ele>178</ele>
        <time>2000-01-01T01:24:59.000Z</time>
      </trkpt>
      <trkpt lat="50.3336" lon="4.29469">
        <ele>170.5</ele>
        <time>2000-01-01T01:25:09.000Z</time>
      </trkpt>
      <trkpt lat="50.33358" lon="4.29503">
        <ele>178</ele>
        <time>2000-01-01T01:25:19.000Z</time>
      </trkpt>
      <trkpt lat="50.33358" lon="4.29517">
        <ele>171.1</ele>
        <time>2000-01-01T01:25:29.000Z</time>
      </trkpt>
      <trkpt lat="50.33368" lon="4.29555">
        <ele>179</ele>
        <time>2000-01-01T01:25:39.000Z</time>
      </trkpt>
      <trkpt lat="50.33374" lon="4.29562">
        <ele>174.5</ele>
        <time>2000-01-01T01:25:49.000Z</time>
      </trkpt>
      <trkpt lat="50.33379" lon="4.29573">
        <ele>175</ele>
        <time>2000-01-01T01:25:59.000Z</time>
      </trkpt>
      <trkpt lat="50.3338" lon="4.29596">
        <ele>180</ele>
        <time>2000-01-01T01:26:09.000Z</time>
      </trkpt>
      <trkpt lat="50.33383" lon="4.29609">
        <ele>176.6</ele>
        <time>2000-01-01T01:26:19.000Z</time>
      </trkpt>
      <trkpt lat="50.33389" lon="4.29622">
        <ele>179</ele>
        <time>2000-01-01T01:26:29.000Z</time>
      </trkpt>
      <trkpt lat="50.33394" lon="4.2963">
        <ele>178.1</ele>
        <time>2000-01-01T01:26:39.000Z</time>
      </trkpt>
      <trkpt lat="50.33401" lon="4.29635">
        <ele>177.7</ele>
        <time>2000-01-01T01:26:49.000Z</time>
      </trkpt>
      <trkpt lat="50.3341" lon="4.29631">
        <ele>179</ele>
        <time>2000-01-01T01:26:59.000Z</time>
      </trkpt>
      <trkpt lat="50.3342" lon="4.2963">
        <ele>176.6</ele>
        <time>2000-01-01T01:27:09.000Z</time>
      </trkpt>
      <trkpt lat="50.33428" lon="4.29626">
        <ele>173</ele>
        <time>2000-01-01T01:27:19.000Z</time>
      </trkpt>
      <trkpt lat="50.33435" lon="4.2962">
        <ele>173.5</ele>
        <time>2000-01-01T01:27:29.000Z</time>
      </trkpt>
      <trkpt lat="50.33441" lon="4.2961">
        <ele>168</ele>
        <time>2000-01-01T01:27:39.000Z</time>
      </trkpt>
      <trkpt lat="50.33447" lon="4.29598">
        <ele>170.5</ele>
        <time>2000-01-01T01:27:49.000Z</time>
      </trkpt>
      <trkpt lat="50.3345" lon="4.29582">
        <ele>168</ele>
        <time>2000-01-01T01:27:59.000Z</time>
      </trkpt>
      <trkpt lat="50.33455" lon="4.29572">
        <ele>168.3</ele>
        <time>2000-01-01T01:28:09.000Z</time>
      </trkpt>
      <trkpt lat="50.33458" lon="4.29561">
        <ele>167.2</ele>
        <time>2000-01-01T01:28:19.000Z</time>
      </trkpt>
      <trkpt lat="50.33458" lon="4.29545">
        <ele>168</ele>
        <time>2000-01-01T01:28:29.000Z</time>
      </trkpt>
      <trkpt lat="50.33461" lon="4.29529">
        <ele>164.9</ele>
        <time>2000-01-01T01:28:39.000Z</time>
      </trkpt>
      <trkpt lat="50.33465" lon="4.29516">
        <ele>158</ele>
        <time>2000-01-01T01:28:49.000Z</time>
      </trkpt>
      <trkpt lat="50.33467" lon="4.29503">
        <ele>160.6</ele>
        <time>2000-01-01T01:28:59.000Z</time>
      </trkpt>
      <trkpt lat="50.33469" lon="4.29487">
        <ele>157</ele>
        <time>2000-01-01T01:29:09.000Z</time>
      </trkpt>
      <trkpt lat="50.33473" lon="4.29472">
        <ele>159.9</ele>
        <time>2000-01-01T01:29:19.000Z</time>
      </trkpt>
      <trkpt lat="50.33474" lon="4.29455">
        <ele>157</ele>
        <time>2000-01-01T01:29:29.000Z</time>
      </trkpt>
      <trkpt lat="50.3348" lon="4.29423">
        <ele>158</ele>
        <time>2000-01-01T01:29:39.000Z</time>
      </trkpt>
      <trkpt lat="50.33485" lon="4.29408">
        <ele>155.9</ele>
        <time>2000-01-01T01:29:49.000Z</time>
      </trkpt>
      <trkpt lat="50.33493" lon="4.29358">
        <ele>163</ele>
        <time>2000-01-01T01:29:59.000Z</time>
      </trkpt>
      <trkpt lat="50.33494" lon="4.29341">
        <ele>152.9</ele>
        <time>2000-01-01T01:30:09.000Z</time>
      </trkpt>
      <trkpt lat="50.33499" lon="4.29327">
        <ele>163</ele>
        <time>2000-01-01T01:30:19.000Z</time>
      </trkpt>
      <trkpt lat="50.33502" lon="4.29308">
        <ele>150</ele>
        <time>2000-01-01T01:30:29.000Z</time>
      </trkpt>
      <trkpt lat="50.33511" lon="4.29301">
        <ele>161</ele>
        <time>2000-01-01T01:30:39.000Z</time>
      </trkpt>
      <trkpt lat="50.33522" lon="4.29302">
        <ele>148.3</ele>
        <time>2000-01-01T01:30:49.000Z</time>
      </trkpt>
      <trkpt lat="50.33532" lon="4.29291">
        <ele>159</ele>
        <time>2000-01-01T01:30:59.000Z</time>
      </trkpt>
      <trkpt lat="50.33541" lon="4.29284">
        <ele>150.3</ele>
        <time>2000-01-01T01:31:09.000Z</time>
      </trkpt>
      <trkpt lat="50.33546" lon="4.29296">
        <ele>159</ele>
        <time>2000-01-01T01:31:19.000Z</time>
      </trkpt>
      <trkpt lat="50.33543" lon="4.29331">
        <ele>159</ele>
        <time>2000-01-01T01:31:29.000Z</time>
      </trkpt>
      <trkpt lat="50.3354" lon="4.2937">
        <ele>158</ele>
        <time>2000-01-01T01:31:39.000Z</time>
      </trkpt>
      <trkpt lat="50.33539" lon="4.29412">
        <ele>157</ele>
        <time>2000-01-01T01:31:49.000Z</time>
      </trkpt>
      <trkpt lat="50.33536" lon="4.29485">
        <ele>157</ele>
        <time>2000-01-01T01:31:59.000Z</time>
      </trkpt>
      <trkpt lat="50.33536" lon="4.29522">
        <ele>162</ele>
        <time>2000-01-01T01:32:09.000Z</time>
      </trkpt>
      <trkpt lat="50.33533" lon="4.29553">
        <ele>164</ele>
        <time>2000-01-01T01:32:19.000Z</time>
      </trkpt>
      <trkpt lat="50.33541" lon="4.29557">
        <ele>175.5</ele>
        <time>2000-01-01T01:32:29.000Z</time>
      </trkpt>
      <trkpt lat="50.33549" lon="4.29552">
        <ele>176.1</ele>
        <time>2000-01-01T01:32:39.000Z</time>
      </trkpt>
      <trkpt lat="50.33555" lon="4.29542">
        <ele>164</ele>
        <time>2000-01-01T01:32:49.000Z</time>
      </trkpt>
      <trkpt lat="50.33562" lon="4.29534">
        <ele>176.7</ele>
        <time>2000-01-01T01:32:59.000Z</time>
      </trkpt>
      <trkpt lat="50.33566" lon="4.29521">
        <ele>176.5</ele>
        <time>2000-01-01T01:33:09.000Z</time>
      </trkpt>
      <trkpt lat="50.33568" lon="4.29506">
        <ele>164</ele>
        <time>2000-01-01T01:33:19.000Z</time>
      </trkpt>
      <trkpt lat="50.33567" lon="4.29496">
        <ele>175.5</ele>
        <time>2000-01-01T01:33:29.000Z</time>
      </trkpt>
      <trkpt lat="50.33571" lon="4.29484">
        <ele>175</ele>
        <time>2000-01-01T01:33:39.000Z</time>
      </trkpt>
      <trkpt lat="50.33575" lon="4.29466">
        <ele>163</ele>
        <time>2000-01-01T01:33:49.000Z</time>
      </trkpt>
      <trkpt lat="50.33579" lon="4.29451">
        <ele>174.5</ele>
        <time>2000-01-01T01:33:59.000Z</time>
      </trkpt>
      <trkpt lat="50.33582" lon="4.29432">
        <ele>163</ele>
        <time>2000-01-01T01:34:09.000Z</time>
      </trkpt>
      <trkpt lat="50.33587" lon="4.29416">
        <ele>174.3</ele>
        <time>2000-01-01T01:34:19.000Z</time>
      </trkpt>
      <trkpt lat="50.33593" lon="4.29384">
        <ele>163</ele>
        <time>2000-01-01T01:34:29.000Z</time>
      </trkpt>
      <trkpt lat="50.33601" lon="4.29358">
        <ele>163</ele>
        <time>2000-01-01T01:34:39.000Z</time>
      </trkpt>
      <trkpt lat="50.33608" lon="4.29338">
        <ele>172.9</ele>
        <time>2000-01-01T01:34:49.000Z</time>
      </trkpt>
      <trkpt lat="50.33609" lon="4.29328">
        <ele>160</ele>
        <time>2000-01-01T01:34:59.000Z</time>
      </trkpt>
      <trkpt lat="50.33612" lon="4.29319">
        <ele>172.5</ele>
        <time>2000-01-01T01:35:09.000Z</time>
      </trkpt>
      <trkpt lat="50.33619" lon="4.29297">
        <ele>158</ele>
        <time>2000-01-01T01:35:19.000Z</time>
      </trkpt>
      <trkpt lat="50.33628" lon="4.29266">
        <ele>161</ele>
        <time>2000-01-01T01:35:29.000Z</time>
      </trkpt>
      <trkpt lat="50.33635" lon="4.29247">
        <ele>170.3</ele>
        <time>2000-01-01T01:35:39.000Z</time>
      </trkpt>
      <trkpt lat="50.33637" lon="4.29237">
        <ele>158</ele>
        <time>2000-01-01T01:35:49.000Z</time>
      </trkpt>
      <trkpt lat="50.3362" lon="4.29222">
        <ele>156</ele>
        <time>2000-01-01T01:35:59.000Z</time>
      </trkpt>
      <trkpt lat="50.33611" lon="4.29225">
        <ele>164.4</ele>
        <time>2000-01-01T01:36:09.000Z</time>
      </trkpt>
      <trkpt lat="50.33602" lon="4.2923">
        <ele>156</ele>
        <time>2000-01-01T01:36:19.000Z</time>
      </trkpt>
      <trkpt lat="50.33583" lon="4.29245">
        <ele>156</ele>
        <time>2000-01-01T01:36:29.000Z</time>
      </trkpt>
      <trkpt lat="50.33575" lon="4.29256">
        <ele>158.1</ele>
        <time>2000-01-01T01:36:39.000Z</time>
      </trkpt>
      <trkpt lat="50.33567" lon="4.2927">
        <ele>156</ele>
        <time>2000-01-01T01:36:49.000Z</time>
      </trkpt>
      <trkpt lat="50.33558" lon="4.29281">
        <ele>154.5</ele>
        <time>2000-01-01T01:36:59.000Z</time>
      </trkpt>
      <trkpt lat="50.3355" lon="4.2927">
        <ele>156</ele>
        <time>2000-01-01T01:37:09.000Z</time>
      </trkpt>
      <trkpt lat="50.3355" lon="4.29255">
        <ele>149.3</ele>
        <time>2000-01-01T01:37:19.000Z</time>
      </trkpt>
      <trkpt lat="50.33552" lon="4.29238">
        <ele>152</ele>
        <time>2000-01-01T01:37:29.000Z</time>
      </trkpt>
      <trkpt lat="50.33558" lon="4.29203">
        <ele>150</ele>
        <time>2000-01-01T01:37:39.000Z</time>
      </trkpt>
      <trkpt lat="50.33564" lon="4.29188">
        <ele>143.2</ele>
        <time>2000-01-01T01:37:49.000Z</time>
      </trkpt>
      <trkpt lat="50.33608" lon="4.29107">
        <ele>145</ele>
        <time>2000-01-01T01:37:59.000Z</time>
      </trkpt>
      <trkpt lat="50.33614" lon="4.29078">
        <ele>143</ele>
        <time>2000-01-01T01:38:09.000Z</time>
      </trkpt>
      <trkpt lat="50.33617" lon="4.2906">
        <ele>131.5</ele>
        <time>2000-01-01T01:38:19.000Z</time>
      </trkpt>
      <trkpt lat="50.33618" lon="4.29045">
        <ele>133</ele>
        <time>2000-01-01T01:38:29.000Z</time>
      </trkpt>
      <trkpt lat="50.3362" lon="4.29027">
        <ele>129.2</ele>
        <time>2000-01-01T01:38:39.000Z</time>
      </trkpt>
      <trkpt lat="50.33619" lon="4.29007">
        <ele>127</ele>
        <time>2000-01-01T01:38:49.000Z</time>
      </trkpt>
      <trkpt lat="50.33617" lon="4.28989">
        <ele>126.1</ele>
        <time>2000-01-01T01:38:59.000Z</time>
      </trkpt>
      <trkpt lat="50.33627" lon="4.28994">
        <ele>127</ele>
        <time>2000-01-01T01:39:09.000Z</time>
      </trkpt>
      <trkpt lat="50.33633" lon="4.29003">
        <ele>129.5</ele>
        <time>2000-01-01T01:39:19.000Z</time>
      </trkpt>
      <trkpt lat="50.33641" lon="4.29018">
        <ele>125</ele>
        <time>2000-01-01T01:39:29.000Z</time>
      </trkpt>
      <trkpt lat="50.33655" lon="4.29009">
        <ele>135.2</ele>
        <time>2000-01-01T01:39:39.000Z</time>
      </trkpt>
      <trkpt lat="50.33664" lon="4.29016">
        <ele>127</ele>
        <time>2000-01-01T01:39:49.000Z</time>
      </trkpt>
      <trkpt lat="50.33675" lon="4.2902">
        <ele>141.6</ele>
        <time>2000-01-01T01:39:59.000Z</time>
      </trkpt>
      <trkpt lat="50.33676" lon="4.29036">
        <ele>129</ele>
        <time>2000-01-01T01:40:09.000Z</time>
      </trkpt>
      <trkpt lat="50.33674" lon="4.29053">
        <ele>149.2</ele>
        <time>2000-01-01T01:40:19.000Z</time>
      </trkpt>
      <trkpt lat="50.33672" lon="4.2907">
        <ele>145</ele>
        <time>2000-01-01T01:40:29.000Z</time>
      </trkpt>
      <trkpt lat="50.33671" lon="4.29087">
        <ele>154.8</ele>
        <time>2000-01-01T01:40:39.000Z</time>
      </trkpt>
      <trkpt lat="50.33671" lon="4.29103">
        <ele>151</ele>
        <time>2000-01-01T01:40:49.000Z</time>
      </trkpt>
      <trkpt lat="50.33672" lon="4.2912">
        <ele>160.9</ele>
        <time>2000-01-01T01:40:59.000Z</time>
      </trkpt>
      <trkpt lat="50.33674" lon="4.29134">
        <ele>158</ele>
        <time>2000-01-01T01:41:09.000Z</time>
      </trkpt>
      <trkpt lat="50.33675" lon="4.29148">
        <ele>165.9</ele>
        <time>2000-01-01T01:41:19.000Z</time>
      </trkpt>
      <trkpt lat="50.33684" lon="4.29156">
        <ele>158</ele>
        <time>2000-01-01T01:41:29.000Z</time>
      </trkpt>
      <trkpt lat="50.33693" lon="4.29165">
        <ele>170.7</ele>
        <time>2000-01-01T01:41:39.000Z</time>
      </trkpt>
      <trkpt lat="50.33702" lon="4.29157">
        <ele>157</ele>
        <time>2000-01-01T01:41:49.000Z</time>
      </trkpt>
      <trkpt lat="50.3371" lon="4.29135">
        <ele>170.3</ele>
        <time>2000-01-01T01:41:59.000Z</time>
      </trkpt>
      <trkpt lat="50.33721" lon="4.29115">
        <ele>156</ele>
        <time>2000-01-01T01:42:09.000Z</time>
      </trkpt>
      <trkpt lat="50.33728" lon="4.29109">
        <ele>170</ele>
        <time>2000-01-01T01:42:19.000Z</time>
      </trkpt>
      <trkpt lat="50.33736" lon="4.291">
        <ele>156</ele>
        <time>2000-01-01T01:42:29.000Z</time>
      </trkpt>
      <trkpt lat="50.33745" lon="4.29104">
        <ele>170.5</ele>
        <time>2000-01-01T01:42:39.000Z</time>
      </trkpt>
      <trkpt lat="50.33754" lon="4.29113">
        <ele>155</ele>
        <time>2000-01-01T01:42:49.000Z</time>
      </trkpt>
      <trkpt lat="50.33766" lon="4.29111">
        <ele>172</ele>
        <time>2000-01-01T01:42:59.000Z</time>
      </trkpt>
      <trkpt lat="50.33775" lon="4.29107">
        <ele>154</ele>
        <time>2000-01-01T01:43:09.000Z</time>
      </trkpt>
      <trkpt lat="50.33785" lon="4.29107">
        <ele>170.3</ele>
        <time>2000-01-01T01:43:19.000Z</time>
      </trkpt>
      <trkpt lat="50.33794" lon="4.2911">
        <ele>154</ele>
        <time>2000-01-01T01:43:29.000Z</time>
      </trkpt>
      <trkpt lat="50.33802" lon="4.29111">
        <ele>167.6</ele>
        <time>2000-01-01T01:43:39.000Z</time>
      </trkpt>
      <trkpt lat="50.33812" lon="4.29116">
        <ele>155</ele>
        <time>2000-01-01T01:43:49.000Z</time>
      </trkpt>
      <trkpt lat="50.33816" lon="4.29131">
        <ele>164.9</ele>
        <time>2000-01-01T01:43:59.000Z</time>
      </trkpt>
      <trkpt lat="50.33815" lon="4.29148">
        <ele>156</ele>
        <time>2000-01-01T01:44:09.000Z</time>
      </trkpt>
      <trkpt lat="50.33809" lon="4.29162">
        <ele>165.7</ele>
        <time>2000-01-01T01:44:19.000Z</time>
      </trkpt>
      <trkpt lat="50.33803" lon="4.29182">
        <ele>158</ele>
        <time>2000-01-01T01:44:29.000Z</time>
      </trkpt>
      <trkpt lat="50.33817" lon="4.2919">
        <ele>170</ele>
        <time>2000-01-01T01:44:39.000Z</time>
      </trkpt>
      <trkpt lat="50.33828" lon="4.29203">
        <ele>158</ele>
        <time>2000-01-01T01:44:49.000Z</time>
      </trkpt>
      <trkpt lat="50.33834" lon="4.29185">
        <ele>173</ele>
        <time>2000-01-01T01:44:59.000Z</time>
      </trkpt>
      <trkpt lat="50.33841" lon="4.2917">
        <ele>158</ele>
        <time>2000-01-01T01:45:09.000Z</time>
      </trkpt>
      <trkpt lat="50.33848" lon="4.29172">
        <ele>173</ele>
        <time>2000-01-01T01:45:19.000Z</time>
      </trkpt>
      <trkpt lat="50.33859" lon="4.29174">
        <ele>165</ele>
        <time>2000-01-01T01:45:29.000Z</time>
      </trkpt>
      <trkpt lat="50.33869" lon="4.2918">
        <ele>174.9</ele>
        <time>2000-01-01T01:45:39.000Z</time>
      </trkpt>
      <trkpt lat="50.33878" lon="4.29188">
        <ele>165</ele>
        <time>2000-01-01T01:45:49.000Z</time>
      </trkpt>
      <trkpt lat="50.33889" lon="4.29194">
        <ele>176</ele>
        <time>2000-01-01T01:45:59.000Z</time>
      </trkpt>
      <trkpt lat="50.33911" lon="4.29201">
        <ele>178</ele>
        <time>2000-01-01T01:46:09.000Z</time>
      </trkpt>
      <trkpt lat="50.33928" lon="4.2921">
        <ele>178</ele>
        <time>2000-01-01T01:46:19.000Z</time>
      </trkpt>
      <trkpt lat="50.33931" lon="4.29224">
        <ele>178.1</ele>
        <time>2000-01-01T01:46:29.000Z</time>
      </trkpt>
      <trkpt lat="50.33931" lon="4.29237">
        <ele>176</ele>
        <time>2000-01-01T01:46:39.000Z</time>
      </trkpt>
      <trkpt lat="50.33941" lon="4.29243">
        <ele>179.5</ele>
        <time>2000-01-01T01:46:49.000Z</time>
      </trkpt>
      <trkpt lat="50.33951" lon="4.29241">
        <ele>176</ele>
        <time>2000-01-01T01:46:59.000Z</time>
      </trkpt>
      <trkpt lat="50.33972" lon="4.29238">
        <ele>174</ele>
        <time>2000-01-01T01:47:09.000Z</time>
      </trkpt>
      <trkpt lat="50.33983" lon="4.29238">
        <ele>178.7</ele>
        <time>2000-01-01T01:47:19.000Z</time>
      </trkpt>
      <trkpt lat="50.3401" lon="4.29235">
        <ele>174</ele>
        <time>2000-01-01T01:47:29.000Z</time>
      </trkpt>
      <trkpt lat="50.3402" lon="4.29235">
        <ele>176.9</ele>
        <time>2000-01-01T01:47:39.000Z</time>
      </trkpt>
      <trkpt lat="50.3403" lon="4.29237">
        <ele>174</ele>
        <time>2000-01-01T01:47:49.000Z</time>
      </trkpt>
      <trkpt lat="50.34034" lon="4.29251">
        <ele>175.7</ele>
        <time>2000-01-01T01:47:59.000Z</time>
      </trkpt>
      <trkpt lat="50.34036" lon="4.29266">
        <ele>173</ele>
        <time>2000-01-01T01:48:09.000Z</time>
      </trkpt>
      <trkpt lat="50.34045" lon="4.29273">
        <ele>175.1</ele>
        <time>2000-01-01T01:48:19.000Z</time>
      </trkpt>
      <trkpt lat="50.34056" lon="4.29278">
        <ele>173</ele>
        <time>2000-01-01T01:48:29.000Z</time>
      </trkpt>
      <trkpt lat="50.34067" lon="4.29279">
        <ele>168</ele>
        <time>2000-01-01T01:48:39.000Z</time>
      </trkpt>
      <trkpt lat="50.34077" lon="4.29282">
        <ele>167</ele>
        <time>2000-01-01T01:48:49.000Z</time>
      </trkpt>
      <trkpt lat="50.34082" lon="4.29296">
        <ele>164.8</ele>
        <time>2000-01-01T01:48:59.000Z</time>
      </trkpt>
      <trkpt lat="50.34101" lon="4.29309">
        <ele>167</ele>
        <time>2000-01-01T01:49:09.000Z</time>
      </trkpt>
      <trkpt lat="50.34129" lon="4.29335">
        <ele>163</ele>
        <time>2000-01-01T01:49:19.000Z</time>
      </trkpt>
      <trkpt lat="50.34117" lon="4.29281">
        <ele>159</ele>
        <time>2000-01-01T01:49:29.000Z</time>
      </trkpt>
      <trkpt lat="50.34113" lon="4.29256">
        <ele>138</ele>
        <time>2000-01-01T01:49:39.000Z</time>
      </trkpt>
      <trkpt lat="50.34107" lon="4.29236">
        <ele>142</ele>
        <time>2000-01-01T01:49:49.000Z</time>
      </trkpt>
      <trkpt lat="50.34101" lon="4.29208">
        <ele>144</ele>
        <time>2000-01-01T01:49:59.000Z</time>
      </trkpt>
      <trkpt lat="50.34097" lon="4.29195">
        <ele>136.7</ele>
        <time>2000-01-01T01:50:09.000Z</time>
      </trkpt>
      <trkpt lat="50.34094" lon="4.29169">
        <ele>141</ele>
        <time>2000-01-01T01:50:19.000Z</time>
      </trkpt>
      <trkpt lat="50.34092" lon="4.29153">
        <ele>133.2</ele>
        <time>2000-01-01T01:50:29.000Z</time>
      </trkpt>
      <trkpt lat="50.34092" lon="4.29137">
        <ele>139</ele>
        <time>2000-01-01T01:50:39.000Z</time>
      </trkpt>
      <trkpt lat="50.3409" lon="4.29118">
        <ele>130.7</ele>
        <time>2000-01-01T01:50:49.000Z</time>
      </trkpt>
      <trkpt lat="50.34088" lon="4.291">
        <ele>132</ele>
        <time>2000-01-01T01:50:59.000Z</time>
      </trkpt>
      <trkpt lat="50.34084" lon="4.29083">
        <ele>130.7</ele>
        <time>2000-01-01T01:51:09.000Z</time>
      </trkpt>
      <trkpt lat="50.34083" lon="4.29064">
        <ele>127</ele>
        <time>2000-01-01T01:51:19.000Z</time>
      </trkpt>
      <trkpt lat="50.34081" lon="4.29048">
        <ele>127.4</ele>
        <time>2000-01-01T01:51:29.000Z</time>
      </trkpt>
      <trkpt lat="50.34078" lon="4.29034">
        <ele>127</ele>
        <time>2000-01-01T01:51:39.000Z</time>
      </trkpt>
      <trkpt lat="50.34073" lon="4.29017">
        <ele>128.6</ele>
        <time>2000-01-01T01:51:49.000Z</time>
      </trkpt>
      <trkpt lat="50.34072" lon="4.29">
        <ele>132</ele>
        <time>2000-01-01T01:51:59.000Z</time>
      </trkpt>
      <trkpt lat="50.34069" lon="4.28982">
        <ele>127.2</ele>
        <time>2000-01-01T01:52:09.000Z</time>
      </trkpt>
      <trkpt lat="50.34067" lon="4.28967">
        <ele>133</ele>
        <time>2000-01-01T01:52:19.000Z</time>
      </trkpt>
      <trkpt lat="50.34064" lon="4.28954">
        <ele>125.5</ele>
        <time>2000-01-01T01:52:29.000Z</time>
      </trkpt>
      <trkpt lat="50.34055" lon="4.28942">
        <ele>134</ele>
        <time>2000-01-01T01:52:39.000Z</time>
      </trkpt>
      <trkpt lat="50.34045" lon="4.28932">
        <ele>132.1</ele>
        <time>2000-01-01T01:52:49.000Z</time>
      </trkpt>
      <trkpt lat="50.34037" lon="4.28917">
        <ele>142</ele>
        <time>2000-01-01T01:52:59.000Z</time>
      </trkpt>
      <trkpt lat="50.34035" lon="4.28901">
        <ele>135.7</ele>
        <time>2000-01-01T01:53:09.000Z</time>
      </trkpt>
      <trkpt lat="50.34024" lon="4.28872">
        <ele>142</ele>
        <time>2000-01-01T01:53:19.000Z</time>
      </trkpt>
      <trkpt lat="50.34015" lon="4.28863">
        <ele>143.5</ele>
        <time>2000-01-01T01:53:29.000Z</time>
      </trkpt>
      <trkpt lat="50.34011" lon="4.28847">
        <ele>150</ele>
        <time>2000-01-01T01:53:39.000Z</time>
      </trkpt>
      <trkpt lat="50.34009" lon="4.2883">
        <ele>147.2</ele>
        <time>2000-01-01T01:53:49.000Z</time>
      </trkpt>
      <trkpt lat="50.34006" lon="4.28813">
        <ele>150</ele>
        <time>2000-01-01T01:53:59.000Z</time>
      </trkpt>
      <trkpt lat="50.34004" lon="4.28798">
        <ele>150.6</ele>
        <time>2000-01-01T01:54:09.000Z</time>
      </trkpt>
      <trkpt lat="50.33992" lon="4.28798">
        <ele>152</ele>
        <time>2000-01-01T01:54:19.000Z</time>
      </trkpt>
      <trkpt lat="50.33989" lon="4.28783">
        <ele>157.4</ele>
        <time>2000-01-01T01:54:29.000Z</time>
      </trkpt>
      <trkpt lat="50.33989" lon="4.28766">
        <ele>155</ele>
        <time>2000-01-01T01:54:39.000Z</time>
      </trkpt>
      <trkpt lat="50.33988" lon="4.2875">
        <ele>158.3</ele>
        <time>2000-01-01T01:54:49.000Z</time>
      </trkpt>
      <trkpt lat="50.33988" lon="4.28733">
        <ele>152</ele>
        <time>2000-01-01T01:54:59.000Z</time>
      </trkpt>
      <trkpt lat="50.33991" lon="4.28716">
        <ele>157</ele>
        <time>2000-01-01T01:55:09.000Z</time>
      </trkpt>
      <trkpt lat="50.33993" lon="4.287">
        <ele>149</ele>
        <time>2000-01-01T01:55:19.000Z</time>
      </trkpt>
      <trkpt lat="50.33994" lon="4.28672">
        <ele>149</ele>
        <time>2000-01-01T01:55:29.000Z</time>
      </trkpt>
      <trkpt lat="50.33997" lon="4.28655">
        <ele>157.2</ele>
        <time>2000-01-01T01:55:39.000Z</time>
      </trkpt>
      <trkpt lat="50.34001" lon="4.28639">
        <ele>151</ele>
        <time>2000-01-01T01:55:49.000Z</time>
      </trkpt>
      <trkpt lat="50.34001" lon="4.28622">
        <ele>156.8</ele>
        <time>2000-01-01T01:55:59.000Z</time>
      </trkpt>
      <trkpt lat="50.34004" lon="4.2859">
        <ele>153</ele>
        <time>2000-01-01T01:56:09.000Z</time>
      </trkpt>
      <trkpt lat="50.34004" lon="4.28573">
        <ele>156.3</ele>
        <time>2000-01-01T01:56:19.000Z</time>
      </trkpt>
      <trkpt lat="50.34005" lon="4.28556">
        <ele>156</ele>
        <time>2000-01-01T01:56:29.000Z</time>
      </trkpt>
      <trkpt lat="50.34009" lon="4.2854">
        <ele>154.5</ele>
        <time>2000-01-01T01:56:39.000Z</time>
      </trkpt>
      <trkpt lat="50.34019" lon="4.28539">
        <ele>148</ele>
        <time>2000-01-01T01:56:49.000Z</time>
      </trkpt>
      <trkpt lat="50.34019" lon="4.28561">
        <ele>146.6</ele>
        <time>2000-01-01T01:56:59.000Z</time>
      </trkpt>
      <trkpt lat="50.34021" lon="4.28579">
        <ele>140</ele>
        <time>2000-01-01T01:57:09.000Z</time>
      </trkpt>
      <trkpt lat="50.34023" lon="4.28595">
        <ele>142.2</ele>
        <time>2000-01-01T01:57:19.000Z</time>
      </trkpt>
      <trkpt lat="50.34023" lon="4.28611">
        <ele>139</ele>
        <time>2000-01-01T01:57:29.000Z</time>
      </trkpt>
      <trkpt lat="50.34022" lon="4.2863">
        <ele>140.1</ele>
        <time>2000-01-01T01:57:39.000Z</time>
      </trkpt>
      <trkpt lat="50.34025" lon="4.28649">
        <ele>139</ele>
        <time>2000-01-01T01:57:49.000Z</time>
      </trkpt>
      <trkpt lat="50.34037" lon="4.28649">
        <ele>131</ele>
        <time>2000-01-01T01:57:59.000Z</time>
      </trkpt>
      <trkpt lat="50.34046" lon="4.28661">
        <ele>139</ele>
        <time>2000-01-01T01:58:09.000Z</time>
      </trkpt>
      <trkpt lat="50.34052" lon="4.28653">
        <ele>124.5</ele>
        <time>2000-01-01T01:58:19.000Z</time>
      </trkpt>
      <trkpt lat="50.34053" lon="4.28642">
        <ele>124.1</ele>
        <time>2000-01-01T01:58:29.000Z</time>
      </trkpt>
      <trkpt lat="50.34052" lon="4.28617">
        <ele>132</ele>
        <time>2000-01-01T01:58:39.000Z</time>
      </trkpt>
      <trkpt lat="50.34058" lon="4.28612">
        <ele>123.5</ele>
        <time>2000-01-01T01:58:49.000Z</time>
      </trkpt>
      <trkpt lat="50.34066" lon="4.28586">
        <ele>125</ele>
        <time>2000-01-01T01:58:59.000Z</time>
      </trkpt>
      <trkpt lat="50.34074" lon="4.28556">
        <ele>124</ele>
        <time>2000-01-01T01:59:09.000Z</time>
      </trkpt>
      <trkpt lat="50.34078" lon="4.2854">
        <ele>121.2</ele>
        <time>2000-01-01T01:59:19.000Z</time>
      </trkpt>
      <trkpt lat="50.34089" lon="4.28515">
        <ele>123</ele>
        <time>2000-01-01T01:59:29.000Z</time>
      </trkpt>
      <trkpt lat="50.34105" lon="4.28526">
        <ele>115</ele>
        <time>2000-01-01T01:59:39.000Z</time>
      </trkpt>
      <trkpt lat="50.34126" lon="4.28542">
        <ele>115</ele>
        <time>2000-01-01T01:59:49.000Z</time>
      </trkpt>
      <trkpt lat="50.34132" lon="4.28556">
        <ele>117.2</ele>
        <time>2000-01-01T01:59:59.000Z</time>
      </trkpt>
      <trkpt lat="50.34144" lon="4.28575">
        <ele>113</ele>
        <time>2000-01-01T02:00:09.000Z</time>
      </trkpt>
      <trkpt lat="50.34141" lon="4.28609">
        <ele>112</ele>
        <time>2000-01-01T02:00:19.000Z</time>
      </trkpt>
      <trkpt lat="50.3414" lon="4.28628">
        <ele>117</ele>
        <time>2000-01-01T02:00:29.000Z</time>
      </trkpt>
      <trkpt lat="50.34138" lon="4.28649">
        <ele>110</ele>
        <time>2000-01-01T02:00:39.000Z</time>
      </trkpt>
      <trkpt lat="50.34134" lon="4.28675">
        <ele>111</ele>
        <time>2000-01-01T02:00:49.000Z</time>
      </trkpt>
      <trkpt lat="50.34148" lon="4.28686">
        <ele>117.2</ele>
        <time>2000-01-01T02:00:59.000Z</time>
      </trkpt>
      <trkpt lat="50.34175" lon="4.28688">
        <ele>112</ele>
        <time>2000-01-01T02:01:09.000Z</time>
      </trkpt>
      <trkpt lat="50.34185" lon="4.28689">
        <ele>117.7</ele>
        <time>2000-01-01T02:01:19.000Z</time>
      </trkpt>
      <trkpt lat="50.34198" lon="4.28696">
        <ele>112</ele>
        <time>2000-01-01T02:01:29.000Z</time>
      </trkpt>
      <trkpt lat="50.34208" lon="4.28706">
        <ele>119.7</ele>
        <time>2000-01-01T02:01:39.000Z</time>
      </trkpt>
      <trkpt lat="50.34219" lon="4.28713">
        <ele>112</ele>
        <time>2000-01-01T02:01:49.000Z</time>
      </trkpt>
      <trkpt lat="50.34236" lon="4.28741">
        <ele>113</ele>
        <time>2000-01-01T02:01:59.000Z</time>
      </trkpt>
      <trkpt lat="50.34237" lon="4.28762">
        <ele>123.7</ele>
        <time>2000-01-01T02:02:09.000Z</time>
      </trkpt>
      <trkpt lat="50.34243" lon="4.28769">
        <ele>118</ele>
        <time>2000-01-01T02:02:19.000Z</time>
      </trkpt>
      <trkpt lat="50.34247" lon="4.28786">
        <ele>124</ele>
        <time>2000-01-01T02:02:29.000Z</time>
      </trkpt>
      <trkpt lat="50.34244" lon="4.2877">
        <ele>118</ele>
        <time>2000-01-01T02:02:39.000Z</time>
      </trkpt>
      <trkpt lat="50.34264" lon="4.28777">
        <ele>118</ele>
        <time>2000-01-01T02:02:49.000Z</time>
      </trkpt>
      <trkpt lat="50.34266" lon="4.28794">
        <ele>126.1</ele>
        <time>2000-01-01T02:02:59.000Z</time>
      </trkpt>
      <trkpt lat="50.34266" lon="4.28777">
        <ele>118</ele>
        <time>2000-01-01T02:03:09.000Z</time>
      </trkpt>
      <trkpt lat="50.34274" lon="4.28766">
        <ele>126.2</ele>
        <time>2000-01-01T02:03:19.000Z</time>
      </trkpt>
      <trkpt lat="50.34285" lon="4.28768">
        <ele>127</ele>
        <time>2000-01-01T02:03:29.000Z</time>
      </trkpt>
      <trkpt lat="50.34295" lon="4.28773">
        <ele>129</ele>
        <time>2000-01-01T02:03:39.000Z</time>
      </trkpt>
      <trkpt lat="50.34315" lon="4.28792">
        <ele>135</ele>
        <time>2000-01-01T02:03:49.000Z</time>
      </trkpt>
      <trkpt lat="50.34325" lon="4.28798">
        <ele>132</ele>
        <time>2000-01-01T02:03:59.000Z</time>
      </trkpt>
      <trkpt lat="50.34344" lon="4.28805">
        <ele>138</ele>
        <time>2000-01-01T02:04:09.000Z</time>
      </trkpt>
      <trkpt lat="50.34355" lon="4.28803">
        <ele>135.2</ele>
        <time>2000-01-01T02:04:19.000Z</time>
      </trkpt>
      <trkpt lat="50.34363" lon="4.28793">
        <ele>140</ele>
        <time>2000-01-01T02:04:29.000Z</time>
      </trkpt>
      <trkpt lat="50.34366" lon="4.28778">
        <ele>136.9</ele>
        <time>2000-01-01T02:04:39.000Z</time>
      </trkpt>
      <trkpt lat="50.3436" lon="4.28765">
        <ele>140</ele>
        <time>2000-01-01T02:04:49.000Z</time>
      </trkpt>
      <trkpt lat="50.34365" lon="4.28755">
        <ele>136.8</ele>
        <time>2000-01-01T02:04:59.000Z</time>
      </trkpt>
      <trkpt lat="50.34347" lon="4.28727">
        <ele>140</ele>
        <time>2000-01-01T02:05:09.000Z</time>
      </trkpt>
      <trkpt lat="50.34336" lon="4.28707">
        <ele>135.4</ele>
        <time>2000-01-01T02:05:19.000Z</time>
      </trkpt>
      <trkpt lat="50.34324" lon="4.28683">
        <ele>137</ele>
        <time>2000-01-01T02:05:29.000Z</time>
      </trkpt>
      <trkpt lat="50.34312" lon="4.28652">
        <ele>138</ele>
        <time>2000-01-01T02:05:39.000Z</time>
      </trkpt>
      <trkpt lat="50.34321" lon="4.28656">
        <ele>134.7</ele>
        <time>2000-01-01T02:05:49.000Z</time>
      </trkpt>
      <trkpt lat="50.34345" lon="4.28694">
        <ele>138</ele>
        <time>2000-01-01T02:05:59.000Z</time>
      </trkpt>
      <trkpt lat="50.34364" lon="4.28715">
        <ele>138</ele>
        <time>2000-01-01T02:06:09.000Z</time>
      </trkpt>
      <trkpt lat="50.34372" lon="4.28718">
        <ele>140.6</ele>
        <time>2000-01-01T02:06:19.000Z</time>
      </trkpt>
      <trkpt lat="50.34384" lon="4.28716">
        <ele>138</ele>
        <time>2000-01-01T02:06:29.000Z</time>
      </trkpt>
      <trkpt lat="50.34392" lon="4.28706">
        <ele>142.9</ele>
        <time>2000-01-01T02:06:39.000Z</time>
      </trkpt>
      <trkpt lat="50.34401" lon="4.28699">
        <ele>141</ele>
        <time>2000-01-01T02:06:49.000Z</time>
      </trkpt>
      <trkpt lat="50.34421" lon="4.28685">
        <ele>145</ele>
        <time>2000-01-01T02:06:59.000Z</time>
      </trkpt>
      <trkpt lat="50.3443" lon="4.28679">
        <ele>150.4</ele>
        <time>2000-01-01T02:07:09.000Z</time>
      </trkpt>
      <trkpt lat="50.34436" lon="4.2867">
        <ele>145</ele>
        <time>2000-01-01T02:07:19.000Z</time>
      </trkpt>
      <trkpt lat="50.34449" lon="4.28667">
        <ele>154.8</ele>
        <time>2000-01-01T02:07:29.000Z</time>
      </trkpt>
      <trkpt lat="50.3446" lon="4.28666">
        <ele>153</ele>
        <time>2000-01-01T02:07:39.000Z</time>
      </trkpt>
      <trkpt lat="50.34471" lon="4.28673">
        <ele>158.6</ele>
        <time>2000-01-01T02:07:49.000Z</time>
      </trkpt>
      <trkpt lat="50.34476" lon="4.28686">
        <ele>153</ele>
        <time>2000-01-01T02:07:59.000Z</time>
      </trkpt>
      <trkpt lat="50.34477" lon="4.28703">
        <ele>159</ele>
        <time>2000-01-01T02:08:09.000Z</time>
      </trkpt>
      <trkpt lat="50.34476" lon="4.28725">
        <ele>154</ele>
        <time>2000-01-01T02:08:19.000Z</time>
      </trkpt>
      <trkpt lat="50.34477" lon="4.28738">
        <ele>157.5</ele>
        <time>2000-01-01T02:08:29.000Z</time>
      </trkpt>
      <trkpt lat="50.34477" lon="4.28761">
        <ele>154</ele>
        <time>2000-01-01T02:08:39.000Z</time>
      </trkpt>
      <trkpt lat="50.3448" lon="4.28781">
        <ele>156.2</ele>
        <time>2000-01-01T02:08:49.000Z</time>
      </trkpt>
      <trkpt lat="50.34488" lon="4.28805">
        <ele>154</ele>
        <time>2000-01-01T02:08:59.000Z</time>
      </trkpt>
      <trkpt lat="50.34492" lon="4.2882">
        <ele>154.6</ele>
        <time>2000-01-01T02:09:09.000Z</time>
      </trkpt>
      <trkpt lat="50.34495" lon="4.28835">
        <ele>154</ele>
        <time>2000-01-01T02:09:19.000Z</time>
      </trkpt>
      <trkpt lat="50.34507" lon="4.28838">
        <ele>155.8</ele>
        <time>2000-01-01T02:09:29.000Z</time>
      </trkpt>
      <trkpt lat="50.34517" lon="4.28836">
        <ele>154</ele>
        <time>2000-01-01T02:09:39.000Z</time>
      </trkpt>
      <trkpt lat="50.34528" lon="4.2883">
        <ele>160.4</ele>
        <time>2000-01-01T02:09:49.000Z</time>
      </trkpt>
      <trkpt lat="50.34538" lon="4.28826">
        <ele>157</ele>
        <time>2000-01-01T02:09:59.000Z</time>
      </trkpt>
      <trkpt lat="50.34558" lon="4.28815">
        <ele>160</ele>
        <time>2000-01-01T02:10:09.000Z</time>
      </trkpt>
      <trkpt lat="50.34569" lon="4.28812">
        <ele>169.7</ele>
        <time>2000-01-01T02:10:19.000Z</time>
      </trkpt>
      <trkpt lat="50.3459" lon="4.28802">
        <ele>162</ele>
        <time>2000-01-01T02:10:29.000Z</time>
      </trkpt>
      <trkpt lat="50.34601" lon="4.28801">
        <ele>173.9</ele>
        <time>2000-01-01T02:10:39.000Z</time>
      </trkpt>
      <trkpt lat="50.3461" lon="4.28797">
        <ele>164</ele>
        <time>2000-01-01T02:10:49.000Z</time>
      </trkpt>
      <trkpt lat="50.34625" lon="4.28786">
        <ele>176.5</ele>
        <time>2000-01-01T02:10:59.000Z</time>
      </trkpt>
      <trkpt lat="50.34634" lon="4.28782">
        <ele>169</ele>
        <time>2000-01-01T02:11:09.000Z</time>
      </trkpt>
      <trkpt lat="50.34643" lon="4.2878">
        <ele>178.2</ele>
        <time>2000-01-01T02:11:19.000Z</time>
      </trkpt>
      <trkpt lat="50.34671" lon="4.28776">
        <ele>172</ele>
        <time>2000-01-01T02:11:29.000Z</time>
      </trkpt>
      <trkpt lat="50.34679" lon="4.28772">
        <ele>179.4</ele>
        <time>2000-01-01T02:11:39.000Z</time>
      </trkpt>
      <trkpt lat="50.34686" lon="4.2876">
        <ele>172</ele>
        <time>2000-01-01T02:11:49.000Z</time>
      </trkpt>
      <trkpt lat="50.34685" lon="4.28742">
        <ele>179.6</ele>
        <time>2000-01-01T02:11:59.000Z</time>
      </trkpt>
      <trkpt lat="50.34681" lon="4.28727">
        <ele>173</ele>
        <time>2000-01-01T02:12:09.000Z</time>
      </trkpt>
      <trkpt lat="50.34673" lon="4.28712">
        <ele>178.1</ele>
        <time>2000-01-01T02:12:19.000Z</time>
      </trkpt>
      <trkpt lat="50.34667" lon="4.28698">
        <ele>173</ele>
        <time>2000-01-01T02:12:29.000Z</time>
      </trkpt>
      <trkpt lat="50.34662" lon="4.28682">
        <ele>176.8</ele>
        <time>2000-01-01T02:12:39.000Z</time>
      </trkpt>
      <trkpt lat="50.34656" lon="4.2867">
        <ele>170</ele>
        <time>2000-01-01T02:12:49.000Z</time>
      </trkpt>
      <trkpt lat="50.34651" lon="4.28654">
        <ele>175.9</ele>
        <time>2000-01-01T02:12:59.000Z</time>
      </trkpt>
      <trkpt lat="50.34647" lon="4.28637">
        <ele>167</ele>
        <time>2000-01-01T02:13:09.000Z</time>
      </trkpt>
      <trkpt lat="50.34643" lon="4.28622">
        <ele>174.7</ele>
        <time>2000-01-01T02:13:19.000Z</time>
      </trkpt>
      <trkpt lat="50.34638" lon="4.28609">
        <ele>166</ele>
        <time>2000-01-01T02:13:29.000Z</time>
      </trkpt>
      <trkpt lat="50.34627" lon="4.28581">
        <ele>161</ele>
        <time>2000-01-01T02:13:39.000Z</time>
      </trkpt>
      <trkpt lat="50.3464" lon="4.28567">
        <ele>173.5</ele>
        <time>2000-01-01T02:13:49.000Z</time>
      </trkpt>
      <trkpt lat="50.34648" lon="4.28558">
        <ele>162</ele>
        <time>2000-01-01T02:13:59.000Z</time>
      </trkpt>
      <trkpt lat="50.34656" lon="4.28555">
        <ele>173.6</ele>
        <time>2000-01-01T02:14:09.000Z</time>
      </trkpt>
      <trkpt lat="50.34666" lon="4.28548">
        <ele>163</ele>
        <time>2000-01-01T02:14:19.000Z</time>
      </trkpt>
      <trkpt lat="50.34688" lon="4.28538">
        <ele>163</ele>
        <time>2000-01-01T02:14:29.000Z</time>
      </trkpt>
      <trkpt lat="50.34691" lon="4.28521">
        <ele>175.8</ele>
        <time>2000-01-01T02:14:39.000Z</time>
      </trkpt>
      <trkpt lat="50.34684" lon="4.28505">
        <ele>164</ele>
        <time>2000-01-01T02:14:49.000Z</time>
      </trkpt>
      <trkpt lat="50.3468" lon="4.28491">
        <ele>174.6</ele>
        <time>2000-01-01T02:14:59.000Z</time>
      </trkpt>
      <trkpt lat="50.34676" lon="4.28474">
        <ele>164</ele>
        <time>2000-01-01T02:15:09.000Z</time>
      </trkpt>
      <trkpt lat="50.3467" lon="4.2846">
        <ele>172.8</ele>
        <time>2000-01-01T02:15:19.000Z</time>
      </trkpt>
      <trkpt lat="50.34665" lon="4.28442">
        <ele>164</ele>
        <time>2000-01-01T02:15:29.000Z</time>
      </trkpt>
      <trkpt lat="50.3466" lon="4.28428">
        <ele>171.8</ele>
        <time>2000-01-01T02:15:39.000Z</time>
      </trkpt>
      <trkpt lat="50.34654" lon="4.28395">
        <ele>159</ele>
        <time>2000-01-01T02:15:49.000Z</time>
      </trkpt>
      <trkpt lat="50.34651" lon="4.28378">
        <ele>170</ele>
        <time>2000-01-01T02:15:59.000Z</time>
      </trkpt>
      <trkpt lat="50.34646" lon="4.28364">
        <ele>156</ele>
        <time>2000-01-01T02:16:09.000Z</time>
      </trkpt>
      <trkpt lat="50.34637" lon="4.28336">
        <ele>156</ele>
        <time>2000-01-01T02:16:19.000Z</time>
      </trkpt>
      <trkpt lat="50.34634" lon="4.28318">
        <ele>167.3</ele>
        <time>2000-01-01T02:16:29.000Z</time>
      </trkpt>
      <trkpt lat="50.34625" lon="4.28284">
        <ele>151</ele>
        <time>2000-01-01T02:16:39.000Z</time>
      </trkpt>
      <trkpt lat="50.34621" lon="4.28272">
        <ele>164</ele>
        <time>2000-01-01T02:16:49.000Z</time>
      </trkpt>
      <trkpt lat="50.34617" lon="4.28254">
        <ele>149</ele>
        <time>2000-01-01T02:16:59.000Z</time>
      </trkpt>
      <trkpt lat="50.34625" lon="4.28239">
        <ele>162.2</ele>
        <time>2000-01-01T02:17:09.000Z</time>
      </trkpt>
      <trkpt lat="50.34636" lon="4.28231">
        <ele>147</ele>
        <time>2000-01-01T02:17:19.000Z</time>
      </trkpt>
      <trkpt lat="50.34653" lon="4.28211">
        <ele>147</ele>
        <time>2000-01-01T02:17:29.000Z</time>
      </trkpt>
      <trkpt lat="50.3466" lon="4.282">
        <ele>158.9</ele>
        <time>2000-01-01T02:17:39.000Z</time>
      </trkpt>
      <trkpt lat="50.34676" lon="4.28179">
        <ele>148</ele>
        <time>2000-01-01T02:17:49.000Z</time>
      </trkpt>
      <trkpt lat="50.34684" lon="4.28171">
        <ele>157.1</ele>
        <time>2000-01-01T02:17:59.000Z</time>
      </trkpt>
      <trkpt lat="50.34694" lon="4.28165">
        <ele>147</ele>
        <time>2000-01-01T02:18:09.000Z</time>
      </trkpt>
      <trkpt lat="50.34714" lon="4.28149">
        <ele>146</ele>
        <time>2000-01-01T02:18:19.000Z</time>
      </trkpt>
      <trkpt lat="50.34723" lon="4.28137">
        <ele>156.8</ele>
        <time>2000-01-01T02:18:29.000Z</time>
      </trkpt>
      <trkpt lat="50.3474" lon="4.28117">
        <ele>143</ele>
        <time>2000-01-01T02:18:39.000Z</time>
      </trkpt>
      <trkpt lat="50.3475" lon="4.2811">
        <ele>155.8</ele>
        <time>2000-01-01T02:18:49.000Z</time>
      </trkpt>
      <trkpt lat="50.34771" lon="4.28098">
        <ele>143</ele>
        <time>2000-01-01T02:18:59.000Z</time>
      </trkpt>
      <trkpt lat="50.34781" lon="4.28094">
        <ele>153.4</ele>
        <time>2000-01-01T02:19:09.000Z</time>
      </trkpt>
      <trkpt lat="50.34802" lon="4.28096">
        <ele>147</ele>
        <time>2000-01-01T02:19:19.000Z</time>
      </trkpt>
      <trkpt lat="50.34812" lon="4.28094">
        <ele>151.9</ele>
        <time>2000-01-01T02:19:29.000Z</time>
      </trkpt>
      <trkpt lat="50.34825" lon="4.28099">
        <ele>148</ele>
        <time>2000-01-01T02:19:39.000Z</time>
      </trkpt>
      <trkpt lat="50.34832" lon="4.28086">
        <ele>148.6</ele>
        <time>2000-01-01T02:19:49.000Z</time>
      </trkpt>
      <trkpt lat="50.34844" lon="4.28083">
        <ele>148</ele>
        <time>2000-01-01T02:19:59.000Z</time>
      </trkpt>
      <trkpt lat="50.34861" lon="4.28089">
        <ele>146</ele>
        <time>2000-01-01T02:20:09.000Z</time>
      </trkpt>
      <trkpt lat="50.34867" lon="4.28078">
        <ele>146.1</ele>
        <time>2000-01-01T02:20:19.000Z</time>
      </trkpt>
      <trkpt lat="50.34887" lon="4.28076">
        <ele>146</ele>
        <time>2000-01-01T02:20:29.000Z</time>
      </trkpt>
      <trkpt lat="50.34894" lon="4.28064">
        <ele>147.9</ele>
        <time>2000-01-01T02:20:39.000Z</time>
      </trkpt>
      <trkpt lat="50.34897" lon="4.28052">
        <ele>147</ele>
        <time>2000-01-01T02:20:49.000Z</time>
      </trkpt>
      <trkpt lat="50.3489" lon="4.2802">
        <ele>148</ele>
        <time>2000-01-01T02:20:59.000Z</time>
      </trkpt>
      <trkpt lat="50.34886" lon="4.28009">
        <ele>150.1</ele>
        <time>2000-01-01T02:21:09.000Z</time>
      </trkpt>
      <trkpt lat="50.34887" lon="4.27989">
        <ele>148</ele>
        <time>2000-01-01T02:21:19.000Z</time>
      </trkpt>
      <trkpt lat="50.34885" lon="4.27974">
        <ele>153.4</ele>
        <time>2000-01-01T02:21:29.000Z</time>
      </trkpt>
      <trkpt lat="50.34878" lon="4.27961">
        <ele>149</ele>
        <time>2000-01-01T02:21:39.000Z</time>
      </trkpt>
      <trkpt lat="50.34871" lon="4.27948">
        <ele>153.8</ele>
        <time>2000-01-01T02:21:49.000Z</time>
      </trkpt>
      <trkpt lat="50.34868" lon="4.27932">
        <ele>149</ele>
        <time>2000-01-01T02:21:59.000Z</time>
      </trkpt>
      <trkpt lat="50.34864" lon="4.27917">
        <ele>154</ele>
        <time>2000-01-01T02:22:09.000Z</time>
      </trkpt>
      <trkpt lat="50.34857" lon="4.27908">
        <ele>148</ele>
        <time>2000-01-01T02:22:19.000Z</time>
      </trkpt>
      <trkpt lat="50.34868" lon="4.27888">
        <ele>154.3</ele>
        <time>2000-01-01T02:22:29.000Z</time>
      </trkpt>
      <trkpt lat="50.34876" lon="4.27877">
        <ele>152</ele>
        <time>2000-01-01T02:22:39.000Z</time>
      </trkpt>
      <trkpt lat="50.34886" lon="4.27861">
        <ele>160.3</ele>
        <time>2000-01-01T02:22:49.000Z</time>
      </trkpt>
      <trkpt lat="50.34895" lon="4.27833">
        <ele>156</ele>
        <time>2000-01-01T02:22:59.000Z</time>
      </trkpt>
      <trkpt lat="50.34899" lon="4.27819">
        <ele>164</ele>
        <time>2000-01-01T02:23:09.000Z</time>
      </trkpt>
      <trkpt lat="50.34904" lon="4.27804">
        <ele>157</ele>
        <time>2000-01-01T02:23:19.000Z</time>
      </trkpt>
      <trkpt lat="50.3491" lon="4.27789">
        <ele>167.6</ele>
        <time>2000-01-01T02:23:29.000Z</time>
      </trkpt>
      <trkpt lat="50.34915" lon="4.27773">
        <ele>159</ele>
        <time>2000-01-01T02:23:39.000Z</time>
      </trkpt>
      <trkpt lat="50.34927" lon="4.27746">
        <ele>159</ele>
        <time>2000-01-01T02:23:49.000Z</time>
      </trkpt>
      <trkpt lat="50.34905" lon="4.27753">
        <ele>157</ele>
        <time>2000-01-01T02:23:59.000Z</time>
      </trkpt>
      <trkpt lat="50.34893" lon="4.27782">
        <ele>157</ele>
        <time>2000-01-01T02:24:09.000Z</time>
      </trkpt>
      <trkpt lat="50.34879" lon="4.27814">
        <ele>152</ele>
        <time>2000-01-01T02:24:19.000Z</time>
      </trkpt>
      <trkpt lat="50.34869" lon="4.27837">
        <ele>147</ele>
        <time>2000-01-01T02:24:29.000Z</time>
      </trkpt>
      <trkpt lat="50.34863" lon="4.2785">
        <ele>153.4</ele>
        <time>2000-01-01T02:24:39.000Z</time>
      </trkpt>
      <trkpt lat="50.34851" lon="4.27865">
        <ele>147</ele>
        <time>2000-01-01T02:24:49.000Z</time>
      </trkpt>
      <trkpt lat="50.34843" lon="4.2788">
        <ele>150.8</ele>
        <time>2000-01-01T02:24:59.000Z</time>
      </trkpt>
      <trkpt lat="50.34839" lon="4.27893">
        <ele>146</ele>
        <time>2000-01-01T02:25:09.000Z</time>
      </trkpt>
      <trkpt lat="50.34835" lon="4.2791">
        <ele>147.4</ele>
        <time>2000-01-01T02:25:19.000Z</time>
      </trkpt>
      <trkpt lat="50.34832" lon="4.27926">
        <ele>145</ele>
        <time>2000-01-01T02:25:29.000Z</time>
      </trkpt>
      <trkpt lat="50.34825" lon="4.27931">
        <ele>142.3</ele>
        <time>2000-01-01T02:25:39.000Z</time>
      </trkpt>
      <trkpt lat="50.34815" lon="4.27936">
        <ele>120</ele>
        <time>2000-01-01T02:25:49.000Z</time>
      </trkpt>
      <trkpt lat="50.34793" lon="4.27942">
        <ele>115</ele>
        <time>2000-01-01T02:25:59.000Z</time>
      </trkpt>
      <trkpt lat="50.3478" lon="4.27949">
        <ele>127.9</ele>
        <time>2000-01-01T02:26:09.000Z</time>
      </trkpt>
      <trkpt lat="50.34771" lon="4.27953">
        <ele>115</ele>
        <time>2000-01-01T02:26:19.000Z</time>
      </trkpt>
      <trkpt lat="50.34761" lon="4.27959">
        <ele>124.1</ele>
        <time>2000-01-01T02:26:29.000Z</time>
      </trkpt>
      <trkpt lat="50.34751" lon="4.2797">
        <ele>115</ele>
        <time>2000-01-01T02:26:39.000Z</time>
      </trkpt>
      <trkpt lat="50.34753" lon="4.27952">
        <ele>120.5</ele>
        <time>2000-01-01T02:26:49.000Z</time>
      </trkpt>
      <trkpt lat="50.34759" lon="4.27941">
        <ele>111</ele>
        <time>2000-01-01T02:26:59.000Z</time>
      </trkpt>
      <trkpt lat="50.34763" lon="4.27926">
        <ele>120.7</ele>
        <time>2000-01-01T02:27:09.000Z</time>
      </trkpt>
      <trkpt lat="50.34766" lon="4.27909">
        <ele>105</ele>
        <time>2000-01-01T02:27:19.000Z</time>
      </trkpt>
      <trkpt lat="50.34762" lon="4.27892">
        <ele>117.7</ele>
        <time>2000-01-01T02:27:29.000Z</time>
      </trkpt>
      <trkpt lat="50.34767" lon="4.27877">
        <ele>105</ele>
        <time>2000-01-01T02:27:39.000Z</time>
      </trkpt>
      <trkpt lat="50.34781" lon="4.27853">
        <ele>105</ele>
        <time>2000-01-01T02:27:49.000Z</time>
      </trkpt>
      <trkpt lat="50.34788" lon="4.27837">
        <ele>118.6</ele>
        <time>2000-01-01T02:27:59.000Z</time>
      </trkpt>
      <trkpt lat="50.34794" lon="4.27825">
        <ele>106</ele>
        <time>2000-01-01T02:28:09.000Z</time>
      </trkpt>
      <trkpt lat="50.34802" lon="4.2781">
        <ele>118.3</ele>
        <time>2000-01-01T02:28:19.000Z</time>
      </trkpt>
      <trkpt lat="50.34806" lon="4.27793">
        <ele>107</ele>
        <time>2000-01-01T02:28:29.000Z</time>
      </trkpt>
      <trkpt lat="50.34817" lon="4.27765">
        <ele>109</ele>
        <time>2000-01-01T02:28:39.000Z</time>
      </trkpt>
      <trkpt lat="50.34821" lon="4.27751">
        <ele>121</ele>
        <time>2000-01-01T02:28:49.000Z</time>
      </trkpt>
      <trkpt lat="50.34826" lon="4.27733">
        <ele>110</ele>
        <time>2000-01-01T02:28:59.000Z</time>
      </trkpt>
      <trkpt lat="50.34828" lon="4.27715">
        <ele>118.8</ele>
        <time>2000-01-01T02:29:09.000Z</time>
      </trkpt>
      <trkpt lat="50.34832" lon="4.27696">
        <ele>111</ele>
        <time>2000-01-01T02:29:19.000Z</time>
      </trkpt>
      <trkpt lat="50.34835" lon="4.27643">
        <ele>112</ele>
        <time>2000-01-01T02:29:29.000Z</time>
      </trkpt>
      <trkpt lat="50.34834" lon="4.27624">
        <ele>118.4</ele>
        <time>2000-01-01T02:29:39.000Z</time>
      </trkpt>
      <trkpt lat="50.34834" lon="4.27605">
        <ele>112</ele>
        <time>2000-01-01T02:29:49.000Z</time>
      </trkpt>
      <trkpt lat="50.34833" lon="4.27587">
        <ele>118.8</ele>
        <time>2000-01-01T02:29:59.000Z</time>
      </trkpt>
      <trkpt lat="50.34833" lon="4.27569">
        <ele>116</ele>
        <time>2000-01-01T02:30:09.000Z</time>
      </trkpt>
      <trkpt lat="50.34832" lon="4.27551">
        <ele>120.3</ele>
        <time>2000-01-01T02:30:19.000Z</time>
      </trkpt>
      <trkpt lat="50.34827" lon="4.27533">
        <ele>116</ele>
        <time>2000-01-01T02:30:29.000Z</time>
      </trkpt>
      <trkpt lat="50.34821" lon="4.27517">
        <ele>121.4</ele>
        <time>2000-01-01T02:30:39.000Z</time>
      </trkpt>
      <trkpt lat="50.34816" lon="4.27503">
        <ele>117</ele>
        <time>2000-01-01T02:30:49.000Z</time>
      </trkpt>
      <trkpt lat="50.34813" lon="4.27486">
        <ele>121.3</ele>
        <time>2000-01-01T02:30:59.000Z</time>
      </trkpt>
      <trkpt lat="50.34811" lon="4.27468">
        <ele>120</ele>
        <time>2000-01-01T02:31:09.000Z</time>
      </trkpt>
      <trkpt lat="50.34805" lon="4.27452">
        <ele>120.8</ele>
        <time>2000-01-01T02:31:19.000Z</time>
      </trkpt>
      <trkpt lat="50.34792" lon="4.27425">
        <ele>125</ele>
        <time>2000-01-01T02:31:29.000Z</time>
      </trkpt>
      <trkpt lat="50.34787" lon="4.27412">
        <ele>122.8</ele>
        <time>2000-01-01T02:31:39.000Z</time>
      </trkpt>
      <trkpt lat="50.34779" lon="4.27399">
        <ele>125</ele>
        <time>2000-01-01T02:31:49.000Z</time>
      </trkpt>
      <trkpt lat="50.34771" lon="4.27389">
        <ele>122</ele>
        <time>2000-01-01T02:31:59.000Z</time>
      </trkpt>
      <trkpt lat="50.34765" lon="4.27375">
        <ele>126</ele>
        <time>2000-01-01T02:32:09.000Z</time>
      </trkpt>
      <trkpt lat="50.34758" lon="4.27366">
        <ele>123.2</ele>
        <time>2000-01-01T02:32:19.000Z</time>
      </trkpt>
      <trkpt lat="50.34751" lon="4.27353">
        <ele>126</ele>
        <time>2000-01-01T02:32:29.000Z</time>
      </trkpt>
      <trkpt lat="50.34733" lon="4.27329">
        <ele>126</ele>
        <time>2000-01-01T02:32:39.000Z</time>
      </trkpt>
      <trkpt lat="50.34726" lon="4.27314">
        <ele>124.4</ele>
        <time>2000-01-01T02:32:49.000Z</time>
      </trkpt>
      <trkpt lat="50.34719" lon="4.27301">
        <ele>130</ele>
        <time>2000-01-01T02:32:59.000Z</time>
      </trkpt>
      <trkpt lat="50.34714" lon="4.27287">
        <ele>127.9</ele>
        <time>2000-01-01T02:33:09.000Z</time>
      </trkpt>
      <trkpt lat="50.34681" lon="4.27239">
        <ele>130</ele>
        <time>2000-01-01T02:33:19.000Z</time>
      </trkpt>
      <trkpt lat="50.34673" lon="4.27227">
        <ele>131.7</ele>
        <time>2000-01-01T02:33:29.000Z</time>
      </trkpt>
      <trkpt lat="50.34667" lon="4.27214">
        <ele>130</ele>
        <time>2000-01-01T02:33:39.000Z</time>
      </trkpt>
      <trkpt lat="50.34659" lon="4.27201">
        <ele>133.3</ele>
        <time>2000-01-01T02:33:49.000Z</time>
      </trkpt>
      <trkpt lat="50.34656" lon="4.27185">
        <ele>132</ele>
        <time>2000-01-01T02:33:59.000Z</time>
      </trkpt>
      <trkpt lat="50.3465" lon="4.2717">
        <ele>135.4</ele>
        <time>2000-01-01T02:34:09.000Z</time>
      </trkpt>
      <trkpt lat="50.34645" lon="4.27154">
        <ele>133</ele>
        <time>2000-01-01T02:34:19.000Z</time>
      </trkpt>
      <trkpt lat="50.34643" lon="4.27139">
        <ele>136.5</ele>
        <time>2000-01-01T02:34:29.000Z</time>
      </trkpt>
      <trkpt lat="50.34652" lon="4.27133">
        <ele>133</ele>
        <time>2000-01-01T02:34:39.000Z</time>
      </trkpt>
      <trkpt lat="50.3466" lon="4.2712">
        <ele>144.6</ele>
        <time>2000-01-01T02:34:49.000Z</time>
      </trkpt>
      <trkpt lat="50.34663" lon="4.27104">
        <ele>140</ele>
        <time>2000-01-01T02:34:59.000Z</time>
      </trkpt>
      <trkpt lat="50.34668" lon="4.2709">
        <ele>148.3</ele>
        <time>2000-01-01T02:35:09.000Z</time>
      </trkpt>
      <trkpt lat="50.34671" lon="4.27074">
        <ele>142</ele>
        <time>2000-01-01T02:35:19.000Z</time>
      </trkpt>
      <trkpt lat="50.34676" lon="4.27062">
        <ele>149.6</ele>
        <time>2000-01-01T02:35:29.000Z</time>
      </trkpt>
      <trkpt lat="50.34679" lon="4.27047">
        <ele>145</ele>
        <time>2000-01-01T02:35:39.000Z</time>
      </trkpt>
      <trkpt lat="50.34685" lon="4.27021">
        <ele>145</ele>
        <time>2000-01-01T02:35:49.000Z</time>
      </trkpt>
      <trkpt lat="50.34683" lon="4.27002">
        <ele>154.3</ele>
        <time>2000-01-01T02:35:59.000Z</time>
      </trkpt>
      <trkpt lat="50.34685" lon="4.26982">
        <ele>148</ele>
        <time>2000-01-01T02:36:09.000Z</time>
      </trkpt>
      <trkpt lat="50.34687" lon="4.26967">
        <ele>157.9</ele>
        <time>2000-01-01T02:36:19.000Z</time>
      </trkpt>
      <trkpt lat="50.34685" lon="4.2695">
        <ele>148</ele>
        <time>2000-01-01T02:36:29.000Z</time>
      </trkpt>
      <trkpt lat="50.34687" lon="4.26923">
        <ele>148</ele>
        <time>2000-01-01T02:36:39.000Z</time>
      </trkpt>
      <trkpt lat="50.3469" lon="4.26906">
        <ele>159.5</ele>
        <time>2000-01-01T02:36:49.000Z</time>
      </trkpt>
      <trkpt lat="50.34697" lon="4.26888">
        <ele>149</ele>
        <time>2000-01-01T02:36:59.000Z</time>
      </trkpt>
      <trkpt lat="50.34705" lon="4.26868">
        <ele>160.1</ele>
        <time>2000-01-01T02:37:09.000Z</time>
      </trkpt>
      <trkpt lat="50.34708" lon="4.26855">
        <ele>151</ele>
        <time>2000-01-01T02:37:19.000Z</time>
      </trkpt>
      <trkpt lat="50.34709" lon="4.26849">
        <ele>160</ele>
        <time>2000-01-01T02:37:29.000Z</time>
      </trkpt>
      <trkpt lat="50.347" lon="4.26833">
        <ele>151</ele>
        <time>2000-01-01T02:37:39.000Z</time>
      </trkpt>
      <trkpt lat="50.3468" lon="4.26805">
        <ele>151</ele>
        <time>2000-01-01T02:37:49.000Z</time>
      </trkpt>
      <trkpt lat="50.34679" lon="4.26793">
        <ele>158.1</ele>
        <time>2000-01-01T02:37:59.000Z</time>
      </trkpt>
      <trkpt lat="50.3468" lon="4.26765">
        <ele>149</ele>
        <time>2000-01-01T02:38:09.000Z</time>
      </trkpt>
      <trkpt lat="50.34682" lon="4.26752">
        <ele>158.1</ele>
        <time>2000-01-01T02:38:19.000Z</time>
      </trkpt>
      <trkpt lat="50.34686" lon="4.26728">
        <ele>149</ele>
        <time>2000-01-01T02:38:29.000Z</time>
      </trkpt>
      <trkpt lat="50.34684" lon="4.26714">
        <ele>157.6</ele>
        <time>2000-01-01T02:38:39.000Z</time>
      </trkpt>
      <trkpt lat="50.34678" lon="4.26696">
        <ele>150</ele>
        <time>2000-01-01T02:38:49.000Z</time>
      </trkpt>
      <trkpt lat="50.34668" lon="4.2667">
        <ele>148</ele>
        <time>2000-01-01T02:38:59.000Z</time>
      </trkpt>
      <trkpt lat="50.34674" lon="4.26655">
        <ele>156.2</ele>
        <time>2000-01-01T02:39:09.000Z</time>
      </trkpt>
      <trkpt lat="50.34685" lon="4.26626">
        <ele>147</ele>
        <time>2000-01-01T02:39:19.000Z</time>
      </trkpt>
      <trkpt lat="50.34702" lon="4.26599">
        <ele>144</ele>
        <time>2000-01-01T02:39:29.000Z</time>
      </trkpt>
      <trkpt lat="50.34711" lon="4.26586">
        <ele>154.2</ele>
        <time>2000-01-01T02:39:39.000Z</time>
      </trkpt>
      <trkpt lat="50.34719" lon="4.26575">
        <ele>143</ele>
        <time>2000-01-01T02:39:49.000Z</time>
      </trkpt>
      <trkpt lat="50.34726" lon="4.26563">
        <ele>152.1</ele>
        <time>2000-01-01T02:39:59.000Z</time>
      </trkpt>
      <trkpt lat="50.34728" lon="4.26548">
        <ele>135</ele>
        <time>2000-01-01T02:40:09.000Z</time>
      </trkpt>
      <trkpt lat="50.34732" lon="4.26533">
        <ele>150.3</ele>
        <time>2000-01-01T02:40:19.000Z</time>
      </trkpt>
      <trkpt lat="50.34733" lon="4.26517">
        <ele>132</ele>
        <time>2000-01-01T02:40:29.000Z</time>
      </trkpt>
      <trkpt lat="50.34733" lon="4.265">
        <ele>146</ele>
        <time>2000-01-01T02:40:39.000Z</time>
      </trkpt>
      <trkpt lat="50.34735" lon="4.26484">
        <ele>131</ele>
        <time>2000-01-01T02:40:49.000Z</time>
      </trkpt>
      <trkpt lat="50.34734" lon="4.26475">
        <ele>141.5</ele>
        <time>2000-01-01T02:40:59.000Z</time>
      </trkpt>
      <trkpt lat="50.34731" lon="4.26466">
        <ele>139.5</ele>
        <time>2000-01-01T02:41:09.000Z</time>
      </trkpt>
      <trkpt lat="50.34721" lon="4.26464">
        <ele>131</ele>
        <time>2000-01-01T02:41:19.000Z</time>
      </trkpt>
      <trkpt lat="50.3471" lon="4.26464">
        <ele>136.7</ele>
        <time>2000-01-01T02:41:29.000Z</time>
      </trkpt>
      <trkpt lat="50.34701" lon="4.26471">
        <ele>131</ele>
        <time>2000-01-01T02:41:39.000Z</time>
      </trkpt>
      <trkpt lat="50.34701" lon="4.26487">
        <ele>139.5</ele>
        <time>2000-01-01T02:41:49.000Z</time>
      </trkpt>
      <trkpt lat="50.34696" lon="4.26502">
        <ele>132</ele>
        <time>2000-01-01T02:41:59.000Z</time>
      </trkpt>
      <trkpt lat="50.34689" lon="4.26513">
        <ele>144.7</ele>
        <time>2000-01-01T02:42:09.000Z</time>
      </trkpt>
      <trkpt lat="50.34683" lon="4.26526">
        <ele>133</ele>
        <time>2000-01-01T02:42:19.000Z</time>
      </trkpt>
      <trkpt lat="50.34672" lon="4.26531">
        <ele>148.7</ele>
        <time>2000-01-01T02:42:29.000Z</time>
      </trkpt>
      <trkpt lat="50.34667" lon="4.26545">
        <ele>133</ele>
        <time>2000-01-01T02:42:39.000Z</time>
      </trkpt>
      <trkpt lat="50.34663" lon="4.26558">
        <ele>152.2</ele>
        <time>2000-01-01T02:42:49.000Z</time>
      </trkpt>
      <trkpt lat="50.3466" lon="4.26581">
        <ele>142</ele>
        <time>2000-01-01T02:42:59.000Z</time>
      </trkpt>
      <trkpt lat="50.34653" lon="4.2661">
        <ele>143</ele>
        <time>2000-01-01T02:43:09.000Z</time>
      </trkpt>
      <trkpt lat="50.3464" lon="4.26639">
        <ele>141</ele>
        <time>2000-01-01T02:43:19.000Z</time>
      </trkpt>
      <trkpt lat="50.34636" lon="4.26654">
        <ele>154.8</ele>
        <time>2000-01-01T02:43:29.000Z</time>
      </trkpt>
      <trkpt lat="50.3463" lon="4.26659">
        <ele>154.6</ele>
        <time>2000-01-01T02:43:39.000Z</time>
      </trkpt>
      <trkpt lat="50.34621" lon="4.26652">
        <ele>140</ele>
        <time>2000-01-01T02:43:49.000Z</time>
      </trkpt>
      <trkpt lat="50.34612" lon="4.26638">
        <ele>153.1</ele>
        <time>2000-01-01T02:43:59.000Z</time>
      </trkpt>
      <trkpt lat="50.34617" lon="4.26611">
        <ele>135</ele>
        <time>2000-01-01T02:44:09.000Z</time>
      </trkpt>
      <trkpt lat="50.34621" lon="4.26597">
        <ele>151.9</ele>
        <time>2000-01-01T02:44:19.000Z</time>
      </trkpt>
      <trkpt lat="50.34627" lon="4.26584">
        <ele>132</ele>
        <time>2000-01-01T02:44:29.000Z</time>
      </trkpt>
      <trkpt lat="50.34626" lon="4.26571">
        <ele>149.3</ele>
        <time>2000-01-01T02:44:39.000Z</time>
      </trkpt>
      <trkpt lat="50.34624" lon="4.2656">
        <ele>146.9</ele>
        <time>2000-01-01T02:44:49.000Z</time>
      </trkpt>
      <trkpt lat="50.34629" lon="4.26537">
        <ele>129</ele>
        <time>2000-01-01T02:44:59.000Z</time>
      </trkpt>
      <trkpt lat="50.34636" lon="4.26511">
        <ele>127</ele>
        <time>2000-01-01T02:45:09.000Z</time>
      </trkpt>
      <trkpt lat="50.34626" lon="4.26509">
        <ele>135.9</ele>
        <time>2000-01-01T02:45:19.000Z</time>
      </trkpt>
      <trkpt lat="50.34618" lon="4.26498">
        <ele>123</ele>
        <time>2000-01-01T02:45:29.000Z</time>
      </trkpt>
      <trkpt lat="50.34614" lon="4.26484">
        <ele>129.8</ele>
        <time>2000-01-01T02:45:39.000Z</time>
      </trkpt>
      <trkpt lat="50.34606" lon="4.26489">
        <ele>122</ele>
        <time>2000-01-01T02:45:49.000Z</time>
      </trkpt>
      <trkpt lat="50.34598" lon="4.26499">
        <ele>128.1</ele>
        <time>2000-01-01T02:45:59.000Z</time>
      </trkpt>
      <trkpt lat="50.34588" lon="4.26508">
        <ele>122</ele>
        <time>2000-01-01T02:46:09.000Z</time>
      </trkpt>
      <trkpt lat="50.34581" lon="4.26522">
        <ele>124.1</ele>
        <time>2000-01-01T02:46:19.000Z</time>
      </trkpt>
      <trkpt lat="50.34571" lon="4.26532">
        <ele>118</ele>
        <time>2000-01-01T02:46:29.000Z</time>
      </trkpt>
      <trkpt lat="50.34558" lon="4.26535">
        <ele>122.2</ele>
        <time>2000-01-01T02:46:39.000Z</time>
      </trkpt>
      <trkpt lat="50.34548" lon="4.26525">
        <ele>117</ele>
        <time>2000-01-01T02:46:49.000Z</time>
      </trkpt>
      <trkpt lat="50.3454" lon="4.26516">
        <ele>120.5</ele>
        <time>2000-01-01T02:46:59.000Z</time>
      </trkpt>
      <trkpt lat="50.34532" lon="4.26509">
        <ele>116</ele>
        <time>2000-01-01T02:47:09.000Z</time>
      </trkpt>
      <trkpt lat="50.3452" lon="4.26502">
        <ele>119.1</ele>
        <time>2000-01-01T02:47:19.000Z</time>
      </trkpt>
      <trkpt lat="50.34501" lon="4.26493">
        <ele>116</ele>
        <time>2000-01-01T02:47:29.000Z</time>
      </trkpt>
      <trkpt lat="50.34471" lon="4.26473">
        <ele>113</ele>
        <time>2000-01-01T02:47:39.000Z</time>
      </trkpt>
      <trkpt lat="50.34447" lon="4.2646">
        <ele>113</ele>
        <time>2000-01-01T02:47:49.000Z</time>
      </trkpt>
      <trkpt lat="50.34431" lon="4.2645">
        <ele>119.7</ele>
        <time>2000-01-01T02:47:59.000Z</time>
      </trkpt>
      <trkpt lat="50.34411" lon="4.26436">
        <ele>113</ele>
        <time>2000-01-01T02:48:09.000Z</time>
      </trkpt>
      <trkpt lat="50.34407" lon="4.2646">
        <ele>120.3</ele>
        <time>2000-01-01T02:48:19.000Z</time>
      </trkpt>
      <trkpt lat="50.34394" lon="4.26509">
        <ele>111</ele>
        <time>2000-01-01T02:48:29.000Z</time>
      </trkpt>
      <trkpt lat="50.34392" lon="4.26526">
        <ele>119</ele>
        <time>2000-01-01T02:48:39.000Z</time>
      </trkpt>
      <trkpt lat="50.34388" lon="4.26543">
        <ele>109</ele>
        <time>2000-01-01T02:48:49.000Z</time>
      </trkpt>
      <trkpt lat="50.34385" lon="4.26563">
        <ele>118.9</ele>
        <time>2000-01-01T02:48:59.000Z</time>
      </trkpt>
      <trkpt lat="50.34366" lon="4.26606">
        <ele>108</ele>
        <time>2000-01-01T02:49:09.000Z</time>
      </trkpt>
      <trkpt lat="50.34353" lon="4.26637">
        <ele>107</ele>
        <time>2000-01-01T02:49:19.000Z</time>
      </trkpt>
      <trkpt lat="50.34338" lon="4.26672">
        <ele>103</ele>
        <time>2000-01-01T02:49:29.000Z</time>
      </trkpt>
      <trkpt lat="50.34336" lon="4.26684">
        <ele>118.3</ele>
        <time>2000-01-01T02:49:39.000Z</time>
      </trkpt>
      <trkpt lat="50.34321" lon="4.26715">
        <ele>103</ele>
        <time>2000-01-01T02:49:49.000Z</time>
      </trkpt>
      <trkpt lat="50.34314" lon="4.26725">
        <ele>118.1</ele>
        <time>2000-01-01T02:49:59.000Z</time>
      </trkpt>
      <trkpt lat="50.34299" lon="4.26739">
        <ele>104</ele>
        <time>2000-01-01T02:50:09.000Z</time>
      </trkpt>
      <trkpt lat="50.34288" lon="4.26754">
        <ele>118.4</ele>
        <time>2000-01-01T02:50:19.000Z</time>
      </trkpt>
      <trkpt lat="50.3428" lon="4.26761">
        <ele>105</ele>
        <time>2000-01-01T02:50:29.000Z</time>
      </trkpt>
      <trkpt lat="50.34268" lon="4.2677">
        <ele>118.4</ele>
        <time>2000-01-01T02:50:39.000Z</time>
      </trkpt>
      <trkpt lat="50.34263" lon="4.26778">
        <ele>107</ele>
        <time>2000-01-01T02:50:49.000Z</time>
      </trkpt>
      <trkpt lat="50.34233" lon="4.26814">
        <ele>106</ele>
        <time>2000-01-01T02:50:59.000Z</time>
      </trkpt>
      <trkpt lat="50.34225" lon="4.26823">
        <ele>118.3</ele>
        <time>2000-01-01T02:51:09.000Z</time>
      </trkpt>
      <trkpt lat="50.34218" lon="4.26834">
        <ele>106</ele>
        <time>2000-01-01T02:51:19.000Z</time>
      </trkpt>
      <trkpt lat="50.34212" lon="4.2684">
        <ele>118.6</ele>
        <time>2000-01-01T02:51:29.000Z</time>
      </trkpt>
      <trkpt lat="50.34203" lon="4.26855">
        <ele>106</ele>
        <time>2000-01-01T02:51:39.000Z</time>
      </trkpt>
      <trkpt lat="50.3419" lon="4.26883">
        <ele>106</ele>
        <time>2000-01-01T02:51:49.000Z</time>
      </trkpt>
      <trkpt lat="50.34175" lon="4.26913">
        <ele>107</ele>
        <time>2000-01-01T02:51:59.000Z</time>
      </trkpt>
      <trkpt lat="50.34162" lon="4.26947">
        <ele>108</ele>
        <time>2000-01-01T02:52:09.000Z</time>
      </trkpt>
      <trkpt lat="50.3415" lon="4.26984">
        <ele>112</ele>
        <time>2000-01-01T02:52:19.000Z</time>
      </trkpt>
      <trkpt lat="50.34129" lon="4.27044">
        <ele>124</ele>
        <time>2000-01-01T02:52:29.000Z</time>
      </trkpt>
      <trkpt lat="50.34121" lon="4.2706">
        <ele>123.3</ele>
        <time>2000-01-01T02:52:39.000Z</time>
      </trkpt>
      <trkpt lat="50.34116" lon="4.27075">
        <ele>125</ele>
        <time>2000-01-01T02:52:49.000Z</time>
      </trkpt>
      <trkpt lat="50.34109" lon="4.2709">
        <ele>126.9</ele>
        <time>2000-01-01T02:52:59.000Z</time>
      </trkpt>
      <trkpt lat="50.34106" lon="4.27103">
        <ele>129</ele>
        <time>2000-01-01T02:53:09.000Z</time>
      </trkpt>
      <trkpt lat="50.34103" lon="4.27116">
        <ele>130.3</ele>
        <time>2000-01-01T02:53:19.000Z</time>
      </trkpt>
      <trkpt lat="50.34097" lon="4.27136">
        <ele>153</ele>
        <time>2000-01-01T02:53:29.000Z</time>
      </trkpt>
      <trkpt lat="50.34095" lon="4.27173">
        <ele>158</ele>
        <time>2000-01-01T02:53:39.000Z</time>
      </trkpt>
      <trkpt lat="50.341" lon="4.27208">
        <ele>159</ele>
        <time>2000-01-01T02:53:49.000Z</time>
      </trkpt>
      <trkpt lat="50.34105" lon="4.27242">
        <ele>161</ele>
        <time>2000-01-01T02:53:59.000Z</time>
      </trkpt>
      <trkpt lat="50.3411" lon="4.27276">
        <ele>165</ele>
        <time>2000-01-01T02:54:09.000Z</time>
      </trkpt>
      <trkpt lat="50.34112" lon="4.27319">
        <ele>167</ele>
        <time>2000-01-01T02:54:19.000Z</time>
      </trkpt>
      <trkpt lat="50.34119" lon="4.27338">
        <ele>162.6</ele>
        <time>2000-01-01T02:54:29.000Z</time>
      </trkpt>
      <trkpt lat="50.34124" lon="4.27348">
        <ele>164</ele>
        <time>2000-01-01T02:54:39.000Z</time>
      </trkpt>
      <trkpt lat="50.34121" lon="4.27363">
        <ele>163.6</ele>
        <time>2000-01-01T02:54:49.000Z</time>
      </trkpt>
      <trkpt lat="50.34118" lon="4.27382">
        <ele>161</ele>
        <time>2000-01-01T02:54:59.000Z</time>
      </trkpt>
      <trkpt lat="50.34115" lon="4.27389">
        <ele>163.9</ele>
        <time>2000-01-01T02:55:09.000Z</time>
      </trkpt>
      <trkpt lat="50.34089" lon="4.27372">
        <ele>162</ele>
        <time>2000-01-01T02:55:19.000Z</time>
      </trkpt>
      <trkpt lat="50.34084" lon="4.27368">
        <ele>165</ele>
        <time>2000-01-01T02:55:29.000Z</time>
      </trkpt>
      <trkpt lat="50.34077" lon="4.27367">
        <ele>165.2</ele>
        <time>2000-01-01T02:55:39.000Z</time>
      </trkpt>
      <trkpt lat="50.34009" lon="4.2737">
        <ele>163</ele>
        <time>2000-01-01T02:55:49.000Z</time>
      </trkpt>
      <trkpt lat="50.34003" lon="4.27371">
        <ele>168.8</ele>
        <time>2000-01-01T02:55:59.000Z</time>
      </trkpt>
      <trkpt lat="50.33997" lon="4.27373">
        <ele>169.1</ele>
        <time>2000-01-01T02:56:09.000Z</time>
      </trkpt>
      <trkpt lat="50.33998" lon="4.27381">
        <ele>169.1</ele>
        <time>2000-01-01T02:56:19.000Z</time>
      </trkpt>
      <trkpt lat="50.34002" lon="4.27408">
        <ele>161</ele>
        <time>2000-01-01T02:56:29.000Z</time>
      </trkpt>
      <trkpt lat="50.34007" lon="4.27444">
        <ele>159</ele>
        <time>2000-01-01T02:56:39.000Z</time>
      </trkpt>
      <trkpt lat="50.34006" lon="4.27467">
        <ele>168.1</ele>
        <time>2000-01-01T02:56:49.000Z</time>
      </trkpt>
      <trkpt lat="50.34003" lon="4.27481">
        <ele>158</ele>
        <time>2000-01-01T02:56:59.000Z</time>
      </trkpt>
      <trkpt lat="50.33997" lon="4.27506">
        <ele>167.1</ele>
        <time>2000-01-01T02:57:09.000Z</time>
      </trkpt>
      <trkpt lat="50.33989" lon="4.27529">
        <ele>158</ele>
        <time>2000-01-01T02:57:19.000Z</time>
      </trkpt>
      <trkpt lat="50.33985" lon="4.27543">
        <ele>166.1</ele>
        <time>2000-01-01T02:57:29.000Z</time>
      </trkpt>
      <trkpt lat="50.33976" lon="4.2756">
        <ele>158</ele>
        <time>2000-01-01T02:57:39.000Z</time>
      </trkpt>
      <trkpt lat="50.33971" lon="4.27607">
        <ele>157</ele>
        <time>2000-01-01T02:57:49.000Z</time>
      </trkpt>
      <trkpt lat="50.33965" lon="4.27654">
        <ele>157</ele>
        <time>2000-01-01T02:57:59.000Z</time>
      </trkpt>
      <trkpt lat="50.33957" lon="4.27725">
        <ele>145</ele>
        <time>2000-01-01T02:58:09.000Z</time>
      </trkpt>
      <trkpt lat="50.33949" lon="4.27774">
        <ele>141</ele>
        <time>2000-01-01T02:58:19.000Z</time>
      </trkpt>
      <trkpt lat="50.33947" lon="4.27797">
        <ele>138.9</ele>
        <time>2000-01-01T02:58:29.000Z</time>
      </trkpt>
      <trkpt lat="50.33947" lon="4.27814">
        <ele>140</ele>
        <time>2000-01-01T02:58:39.000Z</time>
      </trkpt>
      <trkpt lat="50.33949" lon="4.27861">
        <ele>139</ele>
        <time>2000-01-01T02:58:49.000Z</time>
      </trkpt>
      <trkpt lat="50.33966" lon="4.27883">
        <ele>132</ele>
        <time>2000-01-01T02:58:59.000Z</time>
      </trkpt>
      <trkpt lat="50.33975" lon="4.27892">
        <ele>125.5</ele>
        <time>2000-01-01T02:59:09.000Z</time>
      </trkpt>
      <trkpt lat="50.33995" lon="4.27924">
        <ele>126</ele>
        <time>2000-01-01T02:59:19.000Z</time>
      </trkpt>
      <trkpt lat="50.34001" lon="4.27939">
        <ele>122</ele>
        <time>2000-01-01T02:59:29.000Z</time>
      </trkpt>
      <trkpt lat="50.34006" lon="4.27955">
        <ele>123</ele>
        <time>2000-01-01T02:59:39.000Z</time>
      </trkpt>
      <trkpt lat="50.3401" lon="4.27967">
        <ele>122.9</ele>
        <time>2000-01-01T02:59:49.000Z</time>
      </trkpt>
      <trkpt lat="50.33996" lon="4.27978">
        <ele>121</ele>
        <time>2000-01-01T02:59:59.000Z</time>
      </trkpt>
      <trkpt lat="50.33974" lon="4.27998">
        <ele>121</ele>
        <time>2000-01-01T03:00:09.000Z</time>
      </trkpt>
      <trkpt lat="50.33965" lon="4.28003">
        <ele>122.3</ele>
        <time>2000-01-01T03:00:19.000Z</time>
      </trkpt>
      <trkpt lat="50.33955" lon="4.28011">
        <ele>118</ele>
        <time>2000-01-01T03:00:29.000Z</time>
      </trkpt>
      <trkpt lat="50.33949" lon="4.2802">
        <ele>122.5</ele>
        <time>2000-01-01T03:00:39.000Z</time>
      </trkpt>
      <trkpt lat="50.3394" lon="4.28027">
        <ele>119</ele>
        <time>2000-01-01T03:00:49.000Z</time>
      </trkpt>
      <trkpt lat="50.33925" lon="4.28037">
        <ele>122.6</ele>
        <time>2000-01-01T03:00:59.000Z</time>
      </trkpt>
      <trkpt lat="50.33917" lon="4.28041">
        <ele>119</ele>
        <time>2000-01-01T03:01:09.000Z</time>
      </trkpt>
      <trkpt lat="50.33897" lon="4.28057">
        <ele>119</ele>
        <time>2000-01-01T03:01:19.000Z</time>
      </trkpt>
      <trkpt lat="50.33883" lon="4.28067">
        <ele>125.1</ele>
        <time>2000-01-01T03:01:29.000Z</time>
      </trkpt>
      <trkpt lat="50.33779" lon="4.28157">
        <ele>124</ele>
        <time>2000-01-01T03:01:39.000Z</time>
      </trkpt>
      <trkpt lat="50.33795" lon="4.28195">
        <ele>125</ele>
        <time>2000-01-01T03:01:49.000Z</time>
      </trkpt>
      <trkpt lat="50.33773" lon="4.28224">
        <ele>126</ele>
        <time>2000-01-01T03:01:59.000Z</time>
      </trkpt>
      <trkpt lat="50.33733" lon="4.28278">
        <ele>132</ele>
        <time>2000-01-01T03:02:09.000Z</time>
      </trkpt>
      <trkpt lat="50.33712" lon="4.28312">
        <ele>131</ele>
        <time>2000-01-01T03:02:19.000Z</time>
      </trkpt>
      <trkpt lat="50.3369" lon="4.28311">
        <ele>131</ele>
        <time>2000-01-01T03:02:29.000Z</time>
      </trkpt>
      <trkpt lat="50.33663" lon="4.28328">
        <ele>133</ele>
        <time>2000-01-01T03:02:39.000Z</time>
      </trkpt>
      <trkpt lat="50.33632" lon="4.28358">
        <ele>138</ele>
        <time>2000-01-01T03:02:49.000Z</time>
      </trkpt>
      <trkpt lat="50.33613" lon="4.28334">
        <ele>150</ele>
        <time>2000-01-01T03:02:59.000Z</time>
      </trkpt>
      <trkpt lat="50.33602" lon="4.28299">
        <ele>150</ele>
        <time>2000-01-01T03:03:09.000Z</time>
      </trkpt>
      <trkpt lat="50.33587" lon="4.28251">
        <ele>153</ele>
        <time>2000-01-01T03:03:19.000Z</time>
      </trkpt>
      <trkpt lat="50.33592" lon="4.28213">
        <ele>155</ele>
        <time>2000-01-01T03:03:29.000Z</time>
      </trkpt>
      <trkpt lat="50.336" lon="4.28158">
        <ele>157</ele>
        <time>2000-01-01T03:03:39.000Z</time>
      </trkpt>
      <trkpt lat="50.33619" lon="4.28127">
        <ele>154</ele>
        <time>2000-01-01T03:03:49.000Z</time>
      </trkpt>
      <trkpt lat="50.33653" lon="4.28073">
        <ele>158</ele>
        <time>2000-01-01T03:03:59.000Z</time>
      </trkpt>
      <trkpt lat="50.3363" lon="4.28034">
        <ele>162</ele>
        <time>2000-01-01T03:04:09.000Z</time>
      </trkpt>
      <trkpt lat="50.33607" lon="4.27995">
        <ele>163</ele>
        <time>2000-01-01T03:04:19.000Z</time>
      </trkpt>
      <trkpt lat="50.33584" lon="4.27956">
        <ele>167</ele>
        <time>2000-01-01T03:04:29.000Z</time>
      </trkpt>
      <trkpt lat="50.33545" lon="4.27889">
        <ele>167</ele>
        <time>2000-01-01T03:04:39.000Z</time>
      </trkpt>
      <trkpt lat="50.33518" lon="4.27915">
        <ele>169</ele>
        <time>2000-01-01T03:04:49.000Z</time>
      </trkpt>
      <trkpt lat="50.33491" lon="4.27941">
        <ele>170</ele>
        <time>2000-01-01T03:04:59.000Z</time>
      </trkpt>
      <trkpt lat="50.33444" lon="4.27988">
        <ele>174</ele>
        <time>2000-01-01T03:05:09.000Z</time>
      </trkpt>
      <trkpt lat="50.33418" lon="4.28003">
        <ele>174</ele>
        <time>2000-01-01T03:05:19.000Z</time>
      </trkpt>
      <trkpt lat="50.33375" lon="4.28029">
        <ele>174</ele>
        <time>2000-01-01T03:05:29.000Z</time>
      </trkpt>
      <trkpt lat="50.33344" lon="4.28023">
        <ele>173</ele>
        <time>2000-01-01T03:05:39.000Z</time>
      </trkpt>
      <trkpt lat="50.33315" lon="4.28006">
        <ele>173</ele>
        <time>2000-01-01T03:05:49.000Z</time>
      </trkpt>
      <trkpt lat="50.33289" lon="4.28014">
        <ele>174</ele>
        <time>2000-01-01T03:05:59.000Z</time>
      </trkpt>
      <trkpt lat="50.33283" lon="4.27975">
        <ele>175</ele>
        <time>2000-01-01T03:06:09.000Z</time>
      </trkpt>
      <trkpt lat="50.33274" lon="4.27916">
        <ele>176</ele>
        <time>2000-01-01T03:06:19.000Z</time>
      </trkpt>
      <trkpt lat="50.33249" lon="4.2794">
        <ele>174</ele>
        <time>2000-01-01T03:06:29.000Z</time>
      </trkpt>
      <trkpt lat="50.33225" lon="4.27964">
        <ele>174</ele>
        <time>2000-01-01T03:06:39.000Z</time>
      </trkpt>
      <trkpt lat="50.33199" lon="4.27988">
        <ele>174</ele>
        <time>2000-01-01T03:06:49.000Z</time>
      </trkpt>
      <trkpt lat="50.33178" lon="4.27985">
        <ele>171</ele>
        <time>2000-01-01T03:06:59.000Z</time>
      </trkpt>
      <trkpt lat="50.33156" lon="4.27982">
        <ele>170</ele>
        <time>2000-01-01T03:07:09.000Z</time>
      </trkpt>
      <trkpt lat="50.33123" lon="4.28003">
        <ele>170</ele>
        <time>2000-01-01T03:07:19.000Z</time>
      </trkpt>
      <trkpt lat="50.33087" lon="4.28034">
        <ele>167</ele>
        <time>2000-01-01T03:07:29.000Z</time>
      </trkpt>
      <trkpt lat="50.33069" lon="4.28063">
        <ele>165</ele>
        <time>2000-01-01T03:07:39.000Z</time>
      </trkpt>
      <trkpt lat="50.33043" lon="4.28104">
        <ele>165</ele>
        <time>2000-01-01T03:07:49.000Z</time>
      </trkpt>
      <trkpt lat="50.33027" lon="4.28145">
        <ele>165</ele>
        <time>2000-01-01T03:07:59.000Z</time>
      </trkpt>
      <trkpt lat="50.33011" lon="4.28187">
        <ele>163</ele>
        <time>2000-01-01T03:08:09.000Z</time>
      </trkpt>
      <trkpt lat="50.32987" lon="4.28249">
        <ele>163</ele>
        <time>2000-01-01T03:08:19.000Z</time>
      </trkpt>
      <trkpt lat="50.32972" lon="4.28284">
        <ele>163</ele>
        <time>2000-01-01T03:08:29.000Z</time>
      </trkpt>
      <trkpt lat="50.32945" lon="4.28345">
        <ele>162</ele>
        <time>2000-01-01T03:08:39.000Z</time>
      </trkpt>
      <trkpt lat="50.32933" lon="4.28363">
        <ele>168</ele>
        <time>2000-01-01T03:08:49.000Z</time>
      </trkpt>
      <trkpt lat="50.32922" lon="4.28367">
        <ele>162</ele>
        <time>2000-01-01T03:08:59.000Z</time>
      </trkpt>
      <trkpt lat="50.3293" lon="4.28403">
        <ele>163</ele>
        <time>2000-01-01T03:09:09.000Z</time>
      </trkpt>
      <trkpt lat="50.32942" lon="4.2845">
        <ele>169</ele>
        <time>2000-01-01T03:09:19.000Z</time>
      </trkpt>
      <trkpt lat="50.32954" lon="4.28479">
        <ele>169</ele>
        <time>2000-01-01T03:09:29.000Z</time>
      </trkpt>
      <trkpt lat="50.32966" lon="4.28509">
        <ele>167</ele>
        <time>2000-01-01T03:09:39.000Z</time>
      </trkpt>
      <trkpt lat="50.32995" lon="4.28535">
        <ele>165</ele>
        <time>2000-01-01T03:09:49.000Z</time>
      </trkpt>
      <trkpt lat="50.33024" lon="4.28562">
        <ele>154</ele>
        <time>2000-01-01T03:09:59.000Z</time>
      </trkpt>
      <trkpt lat="50.33053" lon="4.28589">
        <ele>149</ele>
        <time>2000-01-01T03:10:09.000Z</time>
      </trkpt>
      <trkpt lat="50.33104" lon="4.28635">
        <ele>139</ele>
        <time>2000-01-01T03:10:19.000Z</time>
      </trkpt>
      <trkpt lat="50.3312" lon="4.28604">
        <ele>135</ele>
        <time>2000-01-01T03:10:29.000Z</time>
      </trkpt>
      <trkpt lat="50.33147" lon="4.28589">
        <ele>138</ele>
        <time>2000-01-01T03:10:39.000Z</time>
      </trkpt>
      <trkpt lat="50.33167" lon="4.28562">
        <ele>141</ele>
        <time>2000-01-01T03:10:49.000Z</time>
      </trkpt>
      <trkpt lat="50.3318" lon="4.28551">
        <ele>131.6</ele>
        <time>2000-01-01T03:10:59.000Z</time>
      </trkpt>
      <trkpt lat="50.33229" lon="4.28549">
        <ele>147</ele>
        <time>2000-01-01T03:11:09.000Z</time>
      </trkpt>
      <trkpt lat="50.33249" lon="4.28567">
        <ele>148</ele>
        <time>2000-01-01T03:11:19.000Z</time>
      </trkpt>
      <trkpt lat="50.33272" lon="4.28588">
        <ele>150</ele>
        <time>2000-01-01T03:11:29.000Z</time>
      </trkpt>
      <trkpt lat="50.33305" lon="4.2862">
        <ele>145</ele>
        <time>2000-01-01T03:11:39.000Z</time>
      </trkpt>
      <trkpt lat="50.3332" lon="4.28645">
        <ele>145</ele>
        <time>2000-01-01T03:11:49.000Z</time>
      </trkpt>
      <trkpt lat="50.33335" lon="4.28673">
        <ele>146</ele>
        <time>2000-01-01T03:11:59.000Z</time>
      </trkpt>
      <trkpt lat="50.33353" lon="4.28696">
        <ele>147</ele>
        <time>2000-01-01T03:12:09.000Z</time>
      </trkpt>
      <trkpt lat="50.33374" lon="4.28725">
        <ele>148</ele>
        <time>2000-01-01T03:12:19.000Z</time>
      </trkpt>
      <trkpt lat="50.33395" lon="4.28733">
        <ele>140</ele>
        <time>2000-01-01T03:12:29.000Z</time>
      </trkpt>
      <trkpt lat="50.33404" lon="4.28743">
        <ele>135.5</ele>
        <time>2000-01-01T03:12:39.000Z</time>
      </trkpt>
      <trkpt lat="50.33495" lon="4.28728">
        <ele>133</ele>
        <time>2000-01-01T03:12:49.000Z</time>
      </trkpt>
      <trkpt lat="50.33519" lon="4.28721">
        <ele>133</ele>
        <time>2000-01-01T03:12:59.000Z</time>
      </trkpt>
      <trkpt lat="50.33552" lon="4.28712">
        <ele>121</ele>
        <time>2000-01-01T03:13:09.000Z</time>
      </trkpt>
      <trkpt lat="50.33578" lon="4.28696">
        <ele>121</ele>
        <time>2000-01-01T03:13:19.000Z</time>
      </trkpt>
      <trkpt lat="50.33631" lon="4.28665">
        <ele>126</ele>
        <time>2000-01-01T03:13:29.000Z</time>
      </trkpt>
      <trkpt lat="50.33653" lon="4.28637">
        <ele>125</ele>
        <time>2000-01-01T03:13:39.000Z</time>
      </trkpt>
      <trkpt lat="50.33675" lon="4.28608">
        <ele>125</ele>
        <time>2000-01-01T03:13:49.000Z</time>
      </trkpt>
      <trkpt lat="50.33699" lon="4.28578">
        <ele>127</ele>
        <time>2000-01-01T03:13:59.000Z</time>
      </trkpt>
      <trkpt lat="50.33668" lon="4.2856">
        <ele>126</ele>
        <time>2000-01-01T03:14:09.000Z</time>
      </trkpt>
      <trkpt lat="50.33677" lon="4.28523">
        <ele>126</ele>
        <time>2000-01-01T03:14:19.000Z</time>
      </trkpt>
      <trkpt lat="50.33689" lon="4.28469">
        <ele>126</ele>
        <time>2000-01-01T03:14:29.000Z</time>
      </trkpt>
      <trkpt lat="50.33698" lon="4.28432">
        <ele>125</ele>
        <time>2000-01-01T03:14:39.000Z</time>
      </trkpt>
      <trkpt lat="50.33711" lon="4.28379">
        <ele>125</ele>
        <time>2000-01-01T03:14:49.000Z</time>
      </trkpt>
      <trkpt lat="50.3372" lon="4.28341">
        <ele>123</ele>
        <time>2000-01-01T03:14:59.000Z</time>
      </trkpt>
      <trkpt lat="50.33716" lon="4.28323">
        <ele>136.8</ele>
        <time>2000-01-01T03:15:09.000Z</time>
      </trkpt>
      <trkpt lat="50.33743" lon="4.28326">
        <ele>121</ele>
        <time>2000-01-01T03:15:19.000Z</time>
      </trkpt>
      <trkpt lat="50.33765" lon="4.28324">
        <ele>121</ele>
        <time>2000-01-01T03:15:29.000Z</time>
      </trkpt>
      <trkpt lat="50.33788" lon="4.28321">
        <ele>120</ele>
        <time>2000-01-01T03:15:39.000Z</time>
      </trkpt>
      <trkpt lat="50.33813" lon="4.28309">
        <ele>120</ele>
        <time>2000-01-01T03:15:49.000Z</time>
      </trkpt>
      <trkpt lat="50.33852" lon="4.28289">
        <ele>113</ele>
        <time>2000-01-01T03:15:59.000Z</time>
      </trkpt>
      <trkpt lat="50.33864" lon="4.28298">
        <ele>119.2</ele>
        <time>2000-01-01T03:16:09.000Z</time>
      </trkpt>
      <trkpt lat="50.33859" lon="4.28319">
        <ele>112</ele>
        <time>2000-01-01T03:16:19.000Z</time>
      </trkpt>
      <trkpt lat="50.33862" lon="4.28339">
        <ele>119</ele>
        <time>2000-01-01T03:16:29.000Z</time>
      </trkpt>
      <trkpt lat="50.33835" lon="4.28385">
        <ele>112</ele>
        <time>2000-01-01T03:16:39.000Z</time>
      </trkpt>
      <trkpt lat="50.33824" lon="4.28424">
        <ele>112</ele>
        <time>2000-01-01T03:16:49.000Z</time>
      </trkpt>
      <trkpt lat="50.33805" lon="4.28492">
        <ele>116</ele>
        <time>2000-01-01T03:16:59.000Z</time>
      </trkpt>
      <trkpt lat="50.33794" lon="4.2853">
        <ele>116</ele>
        <time>2000-01-01T03:17:09.000Z</time>
      </trkpt>
      <trkpt lat="50.33777" lon="4.2859">
        <ele>116</ele>
        <time>2000-01-01T03:17:19.000Z</time>
      </trkpt>
    </trkseg>
  </trk>
</gpx>